<?xml version="1.0" encoding="UTF-8" standalone="no" ?>
<gpx xmlns="http://www.topografix.com/GPX/1/1" xmlns:xsi="http://www.w3.org/2001/XMLSchema-instance" xsi:schemaLocation="http://www.topografix.com/GPX/1/1 http://www.topografix.com/GPX/1/1/gpx.xsd" version="1.1" creator="VisuGPX - https://www.visugpx.com">
  <metadata>
    <name>sortie OVS 16102011</name>
    <desc><![CDATA[sortie sympathique de reprise de 19 participants proposée par Véro.]]></desc>
  </metadata>
  <trk>
    <name><![CDATA[eveux_]]></name>
    <trkseg>
      <trkpt lat="45.82026" lon="4.62332">
        <ele>366.880249</ele>
        <time>2011-10-16T07:54:23Z</time>
      </trkpt>
      <trkpt lat="45.82018" lon="4.62327">
        <ele>367.3609619</ele>
        <time>2011-10-16T07:54:34Z</time>
      </trkpt>
      <trkpt lat="45.82017" lon="4.62325">
        <ele>366.880249</ele>
        <time>2011-10-16T07:54:36Z</time>
      </trkpt>
      <trkpt lat="45.81996" lon="4.62318">
        <ele>367.3609619</ele>
        <time>2011-10-16T07:54:47Z</time>
      </trkpt>
      <trkpt lat="45.81967" lon="4.62306">
        <ele>368.3222656</ele>
        <time>2011-10-16T07:54:57Z</time>
      </trkpt>
      <trkpt lat="45.81915" lon="4.6228">
        <ele>370.7255859</ele>
        <time>2011-10-16T07:55:19Z</time>
      </trkpt>
      <trkpt lat="45.81879" lon="4.6226">
        <ele>370.7255859</ele>
        <time>2011-10-16T07:55:39Z</time>
      </trkpt>
      <trkpt lat="45.81856" lon="4.62251">
        <ele>372.6481934</ele>
        <time>2011-10-16T07:55:52Z</time>
      </trkpt>
      <trkpt lat="45.81837" lon="4.62243">
        <ele>374.5708008</ele>
        <time>2011-10-16T07:56:02Z</time>
      </trkpt>
      <trkpt lat="45.81818" lon="4.62235">
        <ele>376.0128174</ele>
        <time>2011-10-16T07:56:12Z</time>
      </trkpt>
      <trkpt lat="45.81793" lon="4.62224">
        <ele>377.454834</ele>
        <time>2011-10-16T07:56:25Z</time>
      </trkpt>
      <trkpt lat="45.81766" lon="4.62192">
        <ele>380.3387451</ele>
        <time>2011-10-16T07:56:46Z</time>
      </trkpt>
      <trkpt lat="45.81765" lon="4.62185">
        <ele>381.7806396</ele>
        <time>2011-10-16T07:56:50Z</time>
      </trkpt>
      <trkpt lat="45.81755" lon="4.62172">
        <ele>383.7032471</ele>
        <time>2011-10-16T07:57:01Z</time>
      </trkpt>
      <trkpt lat="45.81741" lon="4.62173">
        <ele>385.1453857</ele>
        <time>2011-10-16T07:57:11Z</time>
      </trkpt>
      <trkpt lat="45.81711" lon="4.6218">
        <ele>390.4326172</ele>
        <time>2011-10-16T07:57:28Z</time>
      </trkpt>
      <trkpt lat="45.81705" lon="4.6218">
        <ele>391.8745117</ele>
        <time>2011-10-16T07:57:31Z</time>
      </trkpt>
      <trkpt lat="45.81687" lon="4.62181">
        <ele>393.3165283</ele>
        <time>2011-10-16T07:57:40Z</time>
      </trkpt>
      <trkpt lat="45.81666" lon="4.62184">
        <ele>394.7585449</ele>
        <time>2011-10-16T07:57:50Z</time>
      </trkpt>
      <trkpt lat="45.81646" lon="4.62185">
        <ele>396.2005615</ele>
        <time>2011-10-16T07:58:00Z</time>
      </trkpt>
      <trkpt lat="45.81632" lon="4.62186">
        <ele>397.1617432</ele>
        <time>2011-10-16T07:58:09Z</time>
      </trkpt>
      <trkpt lat="45.81617" lon="4.62185">
        <ele>397.1617432</ele>
        <time>2011-10-16T07:58:19Z</time>
      </trkpt>
      <trkpt lat="45.81601" lon="4.62185">
        <ele>397.6424561</ele>
        <time>2011-10-16T07:58:28Z</time>
      </trkpt>
      <trkpt lat="45.81576" lon="4.62183">
        <ele>397.1617432</ele>
        <time>2011-10-16T07:58:39Z</time>
      </trkpt>
      <trkpt lat="45.81553" lon="4.62181">
        <ele>396.6811523</ele>
        <time>2011-10-16T07:58:48Z</time>
      </trkpt>
      <trkpt lat="45.81529" lon="4.62179">
        <ele>396.6811523</ele>
        <time>2011-10-16T07:58:57Z</time>
      </trkpt>
      <trkpt lat="45.81516" lon="4.62179">
        <ele>395.7198486</ele>
        <time>2011-10-16T07:59:04Z</time>
      </trkpt>
      <trkpt lat="45.81513" lon="4.62179">
        <ele>396.2005615</ele>
        <time>2011-10-16T07:59:11Z</time>
      </trkpt>
      <trkpt lat="45.81512" lon="4.62178">
        <ele>396.6811523</ele>
        <time>2011-10-16T08:00:46Z</time>
      </trkpt>
      <trkpt lat="45.81509" lon="4.62178">
        <ele>396.6811523</ele>
        <time>2011-10-16T08:02:15Z</time>
      </trkpt>
      <trkpt lat="45.81509" lon="4.62191">
        <ele>397.6424561</ele>
        <time>2011-10-16T08:02:22Z</time>
      </trkpt>
      <trkpt lat="45.81517" lon="4.62219">
        <ele>398.1231689</ele>
        <time>2011-10-16T08:02:33Z</time>
      </trkpt>
      <trkpt lat="45.8153" lon="4.62251">
        <ele>398.6037598</ele>
        <time>2011-10-16T08:02:44Z</time>
      </trkpt>
      <trkpt lat="45.81546" lon="4.62302">
        <ele>400.0458984</ele>
        <time>2011-10-16T08:03:00Z</time>
      </trkpt>
      <trkpt lat="45.81552" lon="4.62326">
        <ele>401.487793</ele>
        <time>2011-10-16T08:03:07Z</time>
      </trkpt>
      <trkpt lat="45.81561" lon="4.6236">
        <ele>401.487793</ele>
        <time>2011-10-16T08:03:17Z</time>
      </trkpt>
      <trkpt lat="45.81569" lon="4.62404">
        <ele>401.9685059</ele>
        <time>2011-10-16T08:03:28Z</time>
      </trkpt>
      <trkpt lat="45.81573" lon="4.62457">
        <ele>401.9685059</ele>
        <time>2011-10-16T08:03:39Z</time>
      </trkpt>
      <trkpt lat="45.8158" lon="4.62507">
        <ele>401.9685059</ele>
        <time>2011-10-16T08:03:49Z</time>
      </trkpt>
      <trkpt lat="45.81587" lon="4.62552">
        <ele>402.4490967</ele>
        <time>2011-10-16T08:03:58Z</time>
      </trkpt>
      <trkpt lat="45.81594" lon="4.62609">
        <ele>401.487793</ele>
        <time>2011-10-16T08:04:07Z</time>
      </trkpt>
      <trkpt lat="45.81609" lon="4.62666">
        <ele>400.5264893</ele>
        <time>2011-10-16T08:04:15Z</time>
      </trkpt>
      <trkpt lat="45.81619" lon="4.62701">
        <ele>400.5264893</ele>
        <time>2011-10-16T08:04:20Z</time>
      </trkpt>
      <trkpt lat="45.81618" lon="4.6273">
        <ele>401.0070801</ele>
        <time>2011-10-16T08:04:24Z</time>
      </trkpt>
      <trkpt lat="45.81612" lon="4.62765">
        <ele>401.487793</ele>
        <time>2011-10-16T08:04:29Z</time>
      </trkpt>
      <trkpt lat="45.81614" lon="4.62802">
        <ele>402.9296875</ele>
        <time>2011-10-16T08:04:36Z</time>
      </trkpt>
      <trkpt lat="45.81619" lon="4.62838">
        <ele>405.3330078</ele>
        <time>2011-10-16T08:04:44Z</time>
      </trkpt>
      <trkpt lat="45.81621" lon="4.62882">
        <ele>408.217041</ele>
        <time>2011-10-16T08:04:55Z</time>
      </trkpt>
      <trkpt lat="45.8162" lon="4.62917">
        <ele>410.6202393</ele>
        <time>2011-10-16T08:05:03Z</time>
      </trkpt>
      <trkpt lat="45.81621" lon="4.62944">
        <ele>412.0622559</ele>
        <time>2011-10-16T08:05:10Z</time>
      </trkpt>
      <trkpt lat="45.81621" lon="4.62959">
        <ele>412.0622559</ele>
        <time>2011-10-16T08:05:14Z</time>
      </trkpt>
      <trkpt lat="45.81602" lon="4.6296">
        <ele>410.1396484</ele>
        <time>2011-10-16T08:05:19Z</time>
      </trkpt>
      <trkpt lat="45.81581" lon="4.62949">
        <ele>407.7363281</ele>
        <time>2011-10-16T08:05:23Z</time>
      </trkpt>
      <trkpt lat="45.81537" lon="4.62903">
        <ele>403.8911133</ele>
        <time>2011-10-16T08:05:30Z</time>
      </trkpt>
      <trkpt lat="45.81481" lon="4.62847">
        <ele>402.4490967</ele>
        <time>2011-10-16T08:05:39Z</time>
      </trkpt>
      <trkpt lat="45.81438" lon="4.62818">
        <ele>401.487793</ele>
        <time>2011-10-16T08:05:47Z</time>
      </trkpt>
      <trkpt lat="45.81424" lon="4.62804">
        <ele>401.487793</ele>
        <time>2011-10-16T08:05:50Z</time>
      </trkpt>
      <trkpt lat="45.8141" lon="4.62776">
        <ele>401.0070801</ele>
        <time>2011-10-16T08:05:54Z</time>
      </trkpt>
      <trkpt lat="45.81389" lon="4.62752">
        <ele>402.4490967</ele>
        <time>2011-10-16T08:06:00Z</time>
      </trkpt>
      <trkpt lat="45.81369" lon="4.6272">
        <ele>403.4104004</ele>
        <time>2011-10-16T08:06:08Z</time>
      </trkpt>
      <trkpt lat="45.81337" lon="4.62668">
        <ele>400.0458984</ele>
        <time>2011-10-16T08:06:18Z</time>
      </trkpt>
      <trkpt lat="45.81333" lon="4.62662">
        <ele>399.5650635</ele>
        <time>2011-10-16T08:06:19Z</time>
      </trkpt>
      <trkpt lat="45.81309" lon="4.62615">
        <ele>396.2005615</ele>
        <time>2011-10-16T08:06:24Z</time>
      </trkpt>
      <trkpt lat="45.81275" lon="4.62548">
        <ele>394.2779541</ele>
        <time>2011-10-16T08:06:30Z</time>
      </trkpt>
      <trkpt lat="45.81246" lon="4.62503">
        <ele>398.6037598</ele>
        <time>2011-10-16T08:06:35Z</time>
      </trkpt>
      <trkpt lat="45.81237" lon="4.62493">
        <ele>400.0458984</ele>
        <time>2011-10-16T08:06:37Z</time>
      </trkpt>
      <trkpt lat="45.81229" lon="4.62486">
        <ele>401.487793</ele>
        <time>2011-10-16T08:06:39Z</time>
      </trkpt>
      <trkpt lat="45.81207" lon="4.62472">
        <ele>402.9296875</ele>
        <time>2011-10-16T08:06:47Z</time>
      </trkpt>
      <trkpt lat="45.81186" lon="4.62456">
        <ele>405.3330078</ele>
        <time>2011-10-16T08:06:57Z</time>
      </trkpt>
      <trkpt lat="45.81178" lon="4.62452">
        <ele>405.8137207</ele>
        <time>2011-10-16T08:07:06Z</time>
      </trkpt>
      <trkpt lat="45.81172" lon="4.62449">
        <ele>405.8137207</ele>
        <time>2011-10-16T08:07:11Z</time>
      </trkpt>
      <trkpt lat="45.81152" lon="4.62444">
        <ele>406.7749023</ele>
        <time>2011-10-16T08:07:21Z</time>
      </trkpt>
      <trkpt lat="45.81126" lon="4.62438">
        <ele>407.7363281</ele>
        <time>2011-10-16T08:07:30Z</time>
      </trkpt>
      <trkpt lat="45.81092" lon="4.6244">
        <ele>407.7363281</ele>
        <time>2011-10-16T08:07:41Z</time>
      </trkpt>
      <trkpt lat="45.81068" lon="4.62446">
        <ele>407.2556152</ele>
        <time>2011-10-16T08:07:50Z</time>
      </trkpt>
      <trkpt lat="45.81064" lon="4.62447">
        <ele>406.7749023</ele>
        <time>2011-10-16T08:07:54Z</time>
      </trkpt>
      <trkpt lat="45.81054" lon="4.62445">
        <ele>406.2943115</ele>
        <time>2011-10-16T08:07:58Z</time>
      </trkpt>
      <trkpt lat="45.81033" lon="4.62441">
        <ele>403.8911133</ele>
        <time>2011-10-16T08:08:02Z</time>
      </trkpt>
      <trkpt lat="45.81014" lon="4.62437">
        <ele>402.4490967</ele>
        <time>2011-10-16T08:08:05Z</time>
      </trkpt>
      <trkpt lat="45.80988" lon="4.6242">
        <ele>400.0458984</ele>
        <time>2011-10-16T08:08:09Z</time>
      </trkpt>
      <trkpt lat="45.80967" lon="4.62406">
        <ele>398.6037598</ele>
        <time>2011-10-16T08:08:12Z</time>
      </trkpt>
      <trkpt lat="45.80953" lon="4.62397">
        <ele>397.1617432</ele>
        <time>2011-10-16T08:08:14Z</time>
      </trkpt>
      <trkpt lat="45.80897" lon="4.62357">
        <ele>395.2391357</ele>
        <time>2011-10-16T08:08:22Z</time>
      </trkpt>
      <trkpt lat="45.80878" lon="4.62345">
        <ele>395.2391357</ele>
        <time>2011-10-16T08:08:25Z</time>
      </trkpt>
      <trkpt lat="45.80846" lon="4.62345">
        <ele>394.7585449</ele>
        <time>2011-10-16T08:08:30Z</time>
      </trkpt>
      <trkpt lat="45.80836" lon="4.6235">
        <ele>395.2391357</ele>
        <time>2011-10-16T08:08:32Z</time>
      </trkpt>
      <trkpt lat="45.80826" lon="4.6235">
        <ele>395.2391357</ele>
        <time>2011-10-16T08:08:35Z</time>
      </trkpt>
      <trkpt lat="45.80813" lon="4.62332">
        <ele>394.7585449</ele>
        <time>2011-10-16T08:08:41Z</time>
      </trkpt>
      <trkpt lat="45.80808" lon="4.62319">
        <ele>394.2779541</ele>
        <time>2011-10-16T08:08:44Z</time>
      </trkpt>
      <trkpt lat="45.80808" lon="4.62295">
        <ele>392.3553467</ele>
        <time>2011-10-16T08:08:52Z</time>
      </trkpt>
      <trkpt lat="45.80802" lon="4.62267">
        <ele>390.913208</ele>
        <time>2011-10-16T08:08:58Z</time>
      </trkpt>
      <trkpt lat="45.80796" lon="4.62258">
        <ele>389.4711914</ele>
        <time>2011-10-16T08:09:01Z</time>
      </trkpt>
      <trkpt lat="45.80795" lon="4.62256">
        <ele>389.9519043</ele>
        <time>2011-10-16T08:09:02Z</time>
      </trkpt>
      <trkpt lat="45.80792" lon="4.62255">
        <ele>389.4711914</ele>
        <time>2011-10-16T08:09:09Z</time>
      </trkpt>
      <trkpt lat="45.80792" lon="4.62255">
        <ele>389.9519043</ele>
        <time>2011-10-16T08:09:13Z</time>
      </trkpt>
      <trkpt lat="45.80796" lon="4.62247">
        <ele>389.9519043</ele>
        <time>2011-10-16T08:09:18Z</time>
      </trkpt>
      <trkpt lat="45.80793" lon="4.6225">
        <ele>389.4711914</ele>
        <time>2011-10-16T08:09:23Z</time>
      </trkpt>
      <trkpt lat="45.80793" lon="4.62248">
        <ele>389.9519043</ele>
        <time>2011-10-16T08:09:26Z</time>
      </trkpt>
      <trkpt lat="45.80798" lon="4.62249">
        <ele>389.9519043</ele>
        <time>2011-10-16T08:09:31Z</time>
      </trkpt>
      <trkpt lat="45.8079" lon="4.62244">
        <ele>389.9519043</ele>
        <time>2011-10-16T08:09:39Z</time>
      </trkpt>
      <trkpt lat="45.80788" lon="4.62243">
        <ele>389.4711914</ele>
        <time>2011-10-16T08:09:41Z</time>
      </trkpt>
      <trkpt lat="45.80779" lon="4.62241">
        <ele>389.9519043</ele>
        <time>2011-10-16T08:09:50Z</time>
      </trkpt>
      <trkpt lat="45.80785" lon="4.62243">
        <ele>389.9519043</ele>
        <time>2011-10-16T08:09:58Z</time>
      </trkpt>
      <trkpt lat="45.80784" lon="4.62252">
        <ele>389.9519043</ele>
        <time>2011-10-16T08:10:09Z</time>
      </trkpt>
      <trkpt lat="45.8078" lon="4.62248">
        <ele>389.9519043</ele>
        <time>2011-10-16T08:10:11Z</time>
      </trkpt>
      <trkpt lat="45.80761" lon="4.62239">
        <ele>390.4326172</ele>
        <time>2011-10-16T08:10:18Z</time>
      </trkpt>
      <trkpt lat="45.80743" lon="4.62234">
        <ele>391.3937988</ele>
        <time>2011-10-16T08:10:25Z</time>
      </trkpt>
      <trkpt lat="45.80719" lon="4.62235">
        <ele>392.3553467</ele>
        <time>2011-10-16T08:10:33Z</time>
      </trkpt>
      <trkpt lat="45.80706" lon="4.62247">
        <ele>393.3165283</ele>
        <time>2011-10-16T08:10:40Z</time>
      </trkpt>
      <trkpt lat="45.80697" lon="4.62264">
        <ele>394.2779541</ele>
        <time>2011-10-16T08:10:48Z</time>
      </trkpt>
      <trkpt lat="45.80689" lon="4.62277">
        <ele>395.2391357</ele>
        <time>2011-10-16T08:10:57Z</time>
      </trkpt>
      <trkpt lat="45.80696" lon="4.62286">
        <ele>395.7198486</ele>
        <time>2011-10-16T08:11:03Z</time>
      </trkpt>
      <trkpt lat="45.80706" lon="4.62299">
        <ele>397.1617432</ele>
        <time>2011-10-16T08:11:09Z</time>
      </trkpt>
      <trkpt lat="45.80706" lon="4.62301">
        <ele>397.6424561</ele>
        <time>2011-10-16T08:11:10Z</time>
      </trkpt>
      <trkpt lat="45.80721" lon="4.62344">
        <ele>401.9685059</ele>
        <time>2011-10-16T08:11:30Z</time>
      </trkpt>
      <trkpt lat="45.80722" lon="4.62347">
        <ele>402.4490967</ele>
        <time>2011-10-16T08:11:31Z</time>
      </trkpt>
      <trkpt lat="45.80723" lon="4.62362">
        <ele>404.3717041</ele>
        <time>2011-10-16T08:11:36Z</time>
      </trkpt>
      <trkpt lat="45.80715" lon="4.62375">
        <ele>406.2943115</ele>
        <time>2011-10-16T08:11:42Z</time>
      </trkpt>
      <trkpt lat="45.80702" lon="4.62389">
        <ele>406.7749023</ele>
        <time>2011-10-16T08:11:52Z</time>
      </trkpt>
      <trkpt lat="45.80683" lon="4.62401">
        <ele>409.1783447</ele>
        <time>2011-10-16T08:12:03Z</time>
      </trkpt>
      <trkpt lat="45.80676" lon="4.62409">
        <ele>411.1009521</ele>
        <time>2011-10-16T08:12:07Z</time>
      </trkpt>
      <trkpt lat="45.80658" lon="4.62426">
        <ele>413.5042725</ele>
        <time>2011-10-16T08:12:16Z</time>
      </trkpt>
      <trkpt lat="45.80633" lon="4.62443">
        <ele>415.9074707</ele>
        <time>2011-10-16T08:12:28Z</time>
      </trkpt>
      <trkpt lat="45.8061" lon="4.62454">
        <ele>418.310791</ele>
        <time>2011-10-16T08:12:38Z</time>
      </trkpt>
      <trkpt lat="45.80584" lon="4.62465">
        <ele>421.675415</ele>
        <time>2011-10-16T08:12:49Z</time>
      </trkpt>
      <trkpt lat="45.80561" lon="4.62479">
        <ele>423.1174316</ele>
        <time>2011-10-16T08:12:58Z</time>
      </trkpt>
      <trkpt lat="45.80546" lon="4.6249">
        <ele>424.5594482</ele>
        <time>2011-10-16T08:13:05Z</time>
      </trkpt>
      <trkpt lat="45.80538" lon="4.62498">
        <ele>425.520752</ele>
        <time>2011-10-16T08:13:13Z</time>
      </trkpt>
      <trkpt lat="45.80532" lon="4.62502">
        <ele>426.0013428</ele>
        <time>2011-10-16T08:13:22Z</time>
      </trkpt>
      <trkpt lat="45.8053" lon="4.62502">
        <ele>426.4820557</ele>
        <time>2011-10-16T08:13:24Z</time>
      </trkpt>
      <trkpt lat="45.80535" lon="4.62497">
        <ele>425.520752</ele>
        <time>2011-10-16T08:13:29Z</time>
      </trkpt>
      <trkpt lat="45.80537" lon="4.62498">
        <ele>425.520752</ele>
        <time>2011-10-16T08:13:30Z</time>
      </trkpt>
      <trkpt lat="45.80548" lon="4.62512">
        <ele>427.9239502</ele>
        <time>2011-10-16T08:13:37Z</time>
      </trkpt>
      <trkpt lat="45.80553" lon="4.62518">
        <ele>428.885376</ele>
        <time>2011-10-16T08:13:39Z</time>
      </trkpt>
      <trkpt lat="45.80559" lon="4.62532">
        <ele>430.8079834</ele>
        <time>2011-10-16T08:13:43Z</time>
      </trkpt>
      <trkpt lat="45.8057" lon="4.62556">
        <ele>434.1726074</ele>
        <time>2011-10-16T08:13:49Z</time>
      </trkpt>
      <trkpt lat="45.80572" lon="4.6256">
        <ele>434.1726074</ele>
        <time>2011-10-16T08:13:50Z</time>
      </trkpt>
      <trkpt lat="45.80583" lon="4.62587">
        <ele>438.0178223</ele>
        <time>2011-10-16T08:13:56Z</time>
      </trkpt>
      <trkpt lat="45.80594" lon="4.62618">
        <ele>441.3824463</ele>
        <time>2011-10-16T08:14:03Z</time>
      </trkpt>
      <trkpt lat="45.80599" lon="4.62629">
        <ele>443.3050537</ele>
        <time>2011-10-16T08:14:06Z</time>
      </trkpt>
      <trkpt lat="45.80606" lon="4.6265">
        <ele>446.6696777</ele>
        <time>2011-10-16T08:14:13Z</time>
      </trkpt>
      <trkpt lat="45.80618" lon="4.62686">
        <ele>449.5537109</ele>
        <time>2011-10-16T08:14:24Z</time>
      </trkpt>
      <trkpt lat="45.80625" lon="4.6272">
        <ele>452.9182129</ele>
        <time>2011-10-16T08:14:35Z</time>
      </trkpt>
      <trkpt lat="45.8063" lon="4.62747">
        <ele>454.8408203</ele>
        <time>2011-10-16T08:14:43Z</time>
      </trkpt>
      <trkpt lat="45.80637" lon="4.62782">
        <ele>457.7249756</ele>
        <time>2011-10-16T08:14:55Z</time>
      </trkpt>
      <trkpt lat="45.80644" lon="4.62818">
        <ele>459.647583</ele>
        <time>2011-10-16T08:15:07Z</time>
      </trkpt>
      <trkpt lat="45.8065" lon="4.62845">
        <ele>460.6087646</ele>
        <time>2011-10-16T08:15:16Z</time>
      </trkpt>
      <trkpt lat="45.80655" lon="4.62858">
        <ele>462.0507813</ele>
        <time>2011-10-16T08:15:24Z</time>
      </trkpt>
      <trkpt lat="45.80657" lon="4.62876">
        <ele>462.5313721</ele>
        <time>2011-10-16T08:15:33Z</time>
      </trkpt>
      <trkpt lat="45.80661" lon="4.62906">
        <ele>464.4541016</ele>
        <time>2011-10-16T08:15:43Z</time>
      </trkpt>
      <trkpt lat="45.80668" lon="4.6294">
        <ele>466.8574219</ele>
        <time>2011-10-16T08:15:52Z</time>
      </trkpt>
      <trkpt lat="45.80678" lon="4.62982">
        <ele>469.741333</ele>
        <time>2011-10-16T08:16:02Z</time>
      </trkpt>
      <trkpt lat="45.80694" lon="4.63016">
        <ele>473.1060791</ele>
        <time>2011-10-16T08:16:10Z</time>
      </trkpt>
      <trkpt lat="45.80708" lon="4.63022">
        <ele>474.0672607</ele>
        <time>2011-10-16T08:16:16Z</time>
      </trkpt>
      <trkpt lat="45.80718" lon="4.63027">
        <ele>474.0672607</ele>
        <time>2011-10-16T08:16:22Z</time>
      </trkpt>
      <trkpt lat="45.80718" lon="4.63024">
        <ele>474.0672607</ele>
        <time>2011-10-16T08:16:25Z</time>
      </trkpt>
      <trkpt lat="45.80707" lon="4.63016">
        <ele>473.1060791</ele>
        <time>2011-10-16T08:16:34Z</time>
      </trkpt>
      <trkpt lat="45.80705" lon="4.63013">
        <ele>473.1060791</ele>
        <time>2011-10-16T08:16:36Z</time>
      </trkpt>
      <trkpt lat="45.80697" lon="4.63011">
        <ele>473.1060791</ele>
        <time>2011-10-16T08:16:40Z</time>
      </trkpt>
      <trkpt lat="45.80692" lon="4.63009">
        <ele>472.1446533</ele>
        <time>2011-10-16T08:16:44Z</time>
      </trkpt>
      <trkpt lat="45.80686" lon="4.63016">
        <ele>471.6639404</ele>
        <time>2011-10-16T08:16:52Z</time>
      </trkpt>
      <trkpt lat="45.80685" lon="4.63016">
        <ele>471.6639404</ele>
        <time>2011-10-16T08:16:53Z</time>
      </trkpt>
      <trkpt lat="45.80692" lon="4.6302">
        <ele>471.1833496</ele>
        <time>2011-10-16T08:17:06Z</time>
      </trkpt>
      <trkpt lat="45.80694" lon="4.63019">
        <ele>472.1446533</ele>
        <time>2011-10-16T08:19:57Z</time>
      </trkpt>
      <trkpt lat="45.80698" lon="4.63017">
        <ele>472.1446533</ele>
        <time>2011-10-16T08:20:02Z</time>
      </trkpt>
      <trkpt lat="45.80698" lon="4.63015">
        <ele>472.1446533</ele>
        <time>2011-10-16T08:20:03Z</time>
      </trkpt>
      <trkpt lat="45.80695" lon="4.6301">
        <ele>472.6253662</ele>
        <time>2011-10-16T08:20:10Z</time>
      </trkpt>
      <trkpt lat="45.80692" lon="4.63013">
        <ele>472.1446533</ele>
        <time>2011-10-16T08:21:03Z</time>
      </trkpt>
      <trkpt lat="45.80692" lon="4.63019">
        <ele>472.6253662</ele>
        <time>2011-10-16T08:22:21Z</time>
      </trkpt>
      <trkpt lat="45.80701" lon="4.63041">
        <ele>471.6639404</ele>
        <time>2011-10-16T08:22:29Z</time>
      </trkpt>
      <trkpt lat="45.80724" lon="4.63081">
        <ele>469.2607422</ele>
        <time>2011-10-16T08:22:37Z</time>
      </trkpt>
      <trkpt lat="45.80781" lon="4.63137">
        <ele>466.376709</ele>
        <time>2011-10-16T08:22:49Z</time>
      </trkpt>
      <trkpt lat="45.80798" lon="4.63193">
        <ele>463.012085</ele>
        <time>2011-10-16T08:22:55Z</time>
      </trkpt>
      <trkpt lat="45.80803" lon="4.63228">
        <ele>460.6087646</ele>
        <time>2011-10-16T08:22:58Z</time>
      </trkpt>
      <trkpt lat="45.80791" lon="4.63316">
        <ele>457.7249756</ele>
        <time>2011-10-16T08:23:06Z</time>
      </trkpt>
      <trkpt lat="45.80772" lon="4.63415">
        <ele>450.5150146</ele>
        <time>2011-10-16T08:23:15Z</time>
      </trkpt>
      <trkpt lat="45.80774" lon="4.6344">
        <ele>448.1118164</ele>
        <time>2011-10-16T08:23:17Z</time>
      </trkpt>
      <trkpt lat="45.80787" lon="4.63484">
        <ele>444.2664795</ele>
        <time>2011-10-16T08:23:20Z</time>
      </trkpt>
      <trkpt lat="45.80799" lon="4.63533">
        <ele>441.3824463</ele>
        <time>2011-10-16T08:23:24Z</time>
      </trkpt>
      <trkpt lat="45.80802" lon="4.63566">
        <ele>438.0178223</ele>
        <time>2011-10-16T08:23:27Z</time>
      </trkpt>
      <trkpt lat="45.80802" lon="4.63601">
        <ele>434.6533203</ele>
        <time>2011-10-16T08:23:30Z</time>
      </trkpt>
      <trkpt lat="45.80801" lon="4.63638">
        <ele>432.25</ele>
        <time>2011-10-16T08:23:33Z</time>
      </trkpt>
      <trkpt lat="45.808" lon="4.63664">
        <ele>428.885376</ele>
        <time>2011-10-16T08:23:35Z</time>
      </trkpt>
      <trkpt lat="45.80799" lon="4.63677">
        <ele>426.9627686</ele>
        <time>2011-10-16T08:23:36Z</time>
      </trkpt>
      <trkpt lat="45.80795" lon="4.63701">
        <ele>424.0787354</ele>
        <time>2011-10-16T08:23:38Z</time>
      </trkpt>
      <trkpt lat="45.80788" lon="4.63723">
        <ele>423.5980225</ele>
        <time>2011-10-16T08:23:40Z</time>
      </trkpt>
      <trkpt lat="45.80776" lon="4.63788">
        <ele>421.1948242</ele>
        <time>2011-10-16T08:23:46Z</time>
      </trkpt>
      <trkpt lat="45.80778" lon="4.63835">
        <ele>419.2722168</ele>
        <time>2011-10-16T08:23:50Z</time>
      </trkpt>
      <trkpt lat="45.80778" lon="4.63861">
        <ele>417.3496094</ele>
        <time>2011-10-16T08:23:54Z</time>
      </trkpt>
      <trkpt lat="45.80778" lon="4.63865">
        <ele>416.8688965</ele>
        <time>2011-10-16T08:23:55Z</time>
      </trkpt>
      <trkpt lat="45.80777" lon="4.63875">
        <ele>416.3881836</ele>
        <time>2011-10-16T08:24:00Z</time>
      </trkpt>
      <trkpt lat="45.80777" lon="4.63892">
        <ele>415.4268799</ele>
        <time>2011-10-16T08:24:10Z</time>
      </trkpt>
      <trkpt lat="45.80776" lon="4.6391">
        <ele>413.9848633</ele>
        <time>2011-10-16T08:24:21Z</time>
      </trkpt>
      <trkpt lat="45.80775" lon="4.63942">
        <ele>413.5042725</ele>
        <time>2011-10-16T08:24:25Z</time>
      </trkpt>
      <trkpt lat="45.80777" lon="4.6399">
        <ele>410.1396484</ele>
        <time>2011-10-16T08:24:29Z</time>
      </trkpt>
      <trkpt lat="45.80762" lon="4.64076">
        <ele>403.8911133</ele>
        <time>2011-10-16T08:24:35Z</time>
      </trkpt>
      <trkpt lat="45.80757" lon="4.64107">
        <ele>400.5264893</ele>
        <time>2011-10-16T08:24:37Z</time>
      </trkpt>
      <trkpt lat="45.80743" lon="4.64167">
        <ele>397.1617432</ele>
        <time>2011-10-16T08:24:41Z</time>
      </trkpt>
      <trkpt lat="45.80736" lon="4.64196">
        <ele>395.2391357</ele>
        <time>2011-10-16T08:24:43Z</time>
      </trkpt>
      <trkpt lat="45.80727" lon="4.64216">
        <ele>393.7972412</ele>
        <time>2011-10-16T08:24:47Z</time>
      </trkpt>
      <trkpt lat="45.80724" lon="4.64217">
        <ele>393.7972412</ele>
        <time>2011-10-16T08:24:48Z</time>
      </trkpt>
      <trkpt lat="45.80709" lon="4.64204">
        <ele>394.7585449</ele>
        <time>2011-10-16T08:24:54Z</time>
      </trkpt>
      <trkpt lat="45.80686" lon="4.64161">
        <ele>397.1617432</ele>
        <time>2011-10-16T08:25:05Z</time>
      </trkpt>
      <trkpt lat="45.80668" lon="4.64134">
        <ele>397.6424561</ele>
        <time>2011-10-16T08:25:14Z</time>
      </trkpt>
      <trkpt lat="45.80665" lon="4.64132">
        <ele>397.6424561</ele>
        <time>2011-10-16T08:25:16Z</time>
      </trkpt>
      <trkpt lat="45.80657" lon="4.64127">
        <ele>397.6424561</ele>
        <time>2011-10-16T08:25:22Z</time>
      </trkpt>
      <trkpt lat="45.80652" lon="4.64128">
        <ele>398.1231689</ele>
        <time>2011-10-16T08:25:24Z</time>
      </trkpt>
      <trkpt lat="45.80638" lon="4.64133">
        <ele>397.6424561</ele>
        <time>2011-10-16T08:25:32Z</time>
      </trkpt>
      <trkpt lat="45.80637" lon="4.64137">
        <ele>397.1617432</ele>
        <time>2011-10-16T08:25:35Z</time>
      </trkpt>
      <trkpt lat="45.8064" lon="4.64132">
        <ele>397.1617432</ele>
        <time>2011-10-16T08:25:41Z</time>
      </trkpt>
      <trkpt lat="45.80641" lon="4.6413">
        <ele>397.6424561</ele>
        <time>2011-10-16T08:25:43Z</time>
      </trkpt>
      <trkpt lat="45.80646" lon="4.64124">
        <ele>397.1617432</ele>
        <time>2011-10-16T08:25:49Z</time>
      </trkpt>
      <trkpt lat="45.80648" lon="4.64125">
        <ele>397.6424561</ele>
        <time>2011-10-16T08:25:51Z</time>
      </trkpt>
      <trkpt lat="45.80646" lon="4.64132">
        <ele>397.1617432</ele>
        <time>2011-10-16T08:25:58Z</time>
      </trkpt>
      <trkpt lat="45.80641" lon="4.64137">
        <ele>396.6811523</ele>
        <time>2011-10-16T08:26:06Z</time>
      </trkpt>
      <trkpt lat="45.8063" lon="4.6415">
        <ele>396.2005615</ele>
        <time>2011-10-16T08:26:11Z</time>
      </trkpt>
      <trkpt lat="45.80626" lon="4.64172">
        <ele>395.7198486</ele>
        <time>2011-10-16T08:26:16Z</time>
      </trkpt>
      <trkpt lat="45.80626" lon="4.64219">
        <ele>397.1617432</ele>
        <time>2011-10-16T08:26:25Z</time>
      </trkpt>
      <trkpt lat="45.80613" lon="4.64275">
        <ele>399.0843506</ele>
        <time>2011-10-16T08:26:35Z</time>
      </trkpt>
      <trkpt lat="45.8059" lon="4.64344">
        <ele>401.0070801</ele>
        <time>2011-10-16T08:26:48Z</time>
      </trkpt>
      <trkpt lat="45.8056" lon="4.64416">
        <ele>401.487793</ele>
        <time>2011-10-16T08:27:01Z</time>
      </trkpt>
      <trkpt lat="45.80534" lon="4.64483">
        <ele>402.4490967</ele>
        <time>2011-10-16T08:27:13Z</time>
      </trkpt>
      <trkpt lat="45.80522" lon="4.6453">
        <ele>403.4104004</ele>
        <time>2011-10-16T08:27:21Z</time>
      </trkpt>
      <trkpt lat="45.80501" lon="4.6458">
        <ele>405.3330078</ele>
        <time>2011-10-16T08:27:30Z</time>
      </trkpt>
      <trkpt lat="45.80481" lon="4.6462">
        <ele>406.2943115</ele>
        <time>2011-10-16T08:27:40Z</time>
      </trkpt>
      <trkpt lat="45.80433" lon="4.64732">
        <ele>411.581665</ele>
        <time>2011-10-16T08:28:10Z</time>
      </trkpt>
      <trkpt lat="45.80423" lon="4.6477">
        <ele>414.4654541</ele>
        <time>2011-10-16T08:28:19Z</time>
      </trkpt>
      <trkpt lat="45.80406" lon="4.64797">
        <ele>417.3496094</ele>
        <time>2011-10-16T08:28:27Z</time>
      </trkpt>
      <trkpt lat="45.80384" lon="4.6482">
        <ele>420.7141113</ele>
        <time>2011-10-16T08:28:36Z</time>
      </trkpt>
      <trkpt lat="45.80363" lon="4.64846">
        <ele>421.675415</ele>
        <time>2011-10-16T08:28:47Z</time>
      </trkpt>
      <trkpt lat="45.80363" lon="4.64846">
        <ele>421.1948242</ele>
        <time>2011-10-16T08:28:49Z</time>
      </trkpt>
      <trkpt lat="45.80378" lon="4.6483">
        <ele>418.7915039</ele>
        <time>2011-10-16T08:28:54Z</time>
      </trkpt>
      <trkpt lat="45.80389" lon="4.64813">
        <ele>419.2722168</ele>
        <time>2011-10-16T08:29:00Z</time>
      </trkpt>
      <trkpt lat="45.80398" lon="4.64784">
        <ele>421.675415</ele>
        <time>2011-10-16T08:29:08Z</time>
      </trkpt>
      <trkpt lat="45.80398" lon="4.64783">
        <ele>421.675415</ele>
        <time>2011-10-16T08:29:13Z</time>
      </trkpt>
      <trkpt lat="45.80406" lon="4.64772">
        <ele>421.675415</ele>
        <time>2011-10-16T08:29:42Z</time>
      </trkpt>
      <trkpt lat="45.80407" lon="4.6477">
        <ele>422.6367188</ele>
        <time>2011-10-16T08:30:09Z</time>
      </trkpt>
      <trkpt lat="45.80407" lon="4.64765">
        <ele>422.6367188</ele>
        <time>2011-10-16T08:30:11Z</time>
      </trkpt>
      <trkpt lat="45.804" lon="4.64768">
        <ele>423.1174316</ele>
        <time>2011-10-16T08:30:15Z</time>
      </trkpt>
      <trkpt lat="45.80393" lon="4.64767">
        <ele>424.5594482</ele>
        <time>2011-10-16T08:30:19Z</time>
      </trkpt>
      <trkpt lat="45.8038" lon="4.64765">
        <ele>427.9239502</ele>
        <time>2011-10-16T08:30:25Z</time>
      </trkpt>
      <trkpt lat="45.80359" lon="4.64755">
        <ele>431.2885742</ele>
        <time>2011-10-16T08:30:36Z</time>
      </trkpt>
      <trkpt lat="45.80356" lon="4.64751">
        <ele>431.769165</ele>
        <time>2011-10-16T08:30:38Z</time>
      </trkpt>
      <trkpt lat="45.80348" lon="4.64728">
        <ele>432.25</ele>
        <time>2011-10-16T08:30:46Z</time>
      </trkpt>
      <trkpt lat="45.80351" lon="4.64668">
        <ele>426.9627686</ele>
        <time>2011-10-16T08:30:59Z</time>
      </trkpt>
      <trkpt lat="45.80348" lon="4.64662">
        <ele>427.4433594</ele>
        <time>2011-10-16T08:31:02Z</time>
      </trkpt>
      <trkpt lat="45.8035" lon="4.64651">
        <ele>426.9627686</ele>
        <time>2011-10-16T08:31:07Z</time>
      </trkpt>
      <trkpt lat="45.80348" lon="4.64644">
        <ele>427.4433594</ele>
        <time>2011-10-16T08:31:11Z</time>
      </trkpt>
      <trkpt lat="45.80336" lon="4.64627">
        <ele>428.4046631</ele>
        <time>2011-10-16T08:31:22Z</time>
      </trkpt>
      <trkpt lat="45.80334" lon="4.64619">
        <ele>428.4046631</ele>
        <time>2011-10-16T08:31:24Z</time>
      </trkpt>
      <trkpt lat="45.80328" lon="4.64588">
        <ele>427.9239502</ele>
        <time>2011-10-16T08:31:28Z</time>
      </trkpt>
      <trkpt lat="45.80317" lon="4.64559">
        <ele>427.4433594</ele>
        <time>2011-10-16T08:31:32Z</time>
      </trkpt>
      <trkpt lat="45.80301" lon="4.64555">
        <ele>427.4433594</ele>
        <time>2011-10-16T08:31:35Z</time>
      </trkpt>
      <trkpt lat="45.80268" lon="4.6455">
        <ele>426.0013428</ele>
        <time>2011-10-16T08:31:40Z</time>
      </trkpt>
      <trkpt lat="45.80204" lon="4.6455">
        <ele>426.0013428</ele>
        <time>2011-10-16T08:31:50Z</time>
      </trkpt>
      <trkpt lat="45.8014" lon="4.64533">
        <ele>422.6367188</ele>
        <time>2011-10-16T08:32:01Z</time>
      </trkpt>
      <trkpt lat="45.8013" lon="4.64531">
        <ele>422.6367188</ele>
        <time>2011-10-16T08:32:03Z</time>
      </trkpt>
      <trkpt lat="45.80127" lon="4.64533">
        <ele>422.6367188</ele>
        <time>2011-10-16T08:32:10Z</time>
      </trkpt>
      <trkpt lat="45.80128" lon="4.64533">
        <ele>422.6367188</ele>
        <time>2011-10-16T08:32:16Z</time>
      </trkpt>
      <trkpt lat="45.80122" lon="4.64543">
        <ele>423.1174316</ele>
        <time>2011-10-16T08:32:20Z</time>
      </trkpt>
      <trkpt lat="45.80116" lon="4.6455">
        <ele>421.1948242</ele>
        <time>2011-10-16T08:32:22Z</time>
      </trkpt>
      <trkpt lat="45.80087" lon="4.64585">
        <ele>414.4654541</ele>
        <time>2011-10-16T08:32:32Z</time>
      </trkpt>
      <trkpt lat="45.80082" lon="4.64603">
        <ele>412.5428467</ele>
        <time>2011-10-16T08:32:35Z</time>
      </trkpt>
      <trkpt lat="45.80068" lon="4.64625">
        <ele>411.581665</ele>
        <time>2011-10-16T08:32:39Z</time>
      </trkpt>
      <trkpt lat="45.80062" lon="4.64629">
        <ele>409.6590576</ele>
        <time>2011-10-16T08:32:41Z</time>
      </trkpt>
      <trkpt lat="45.80041" lon="4.64648">
        <ele>406.2943115</ele>
        <time>2011-10-16T08:32:45Z</time>
      </trkpt>
      <trkpt lat="45.80033" lon="4.64648">
        <ele>404.3717041</ele>
        <time>2011-10-16T08:32:47Z</time>
      </trkpt>
      <trkpt lat="45.80027" lon="4.64645">
        <ele>402.9296875</ele>
        <time>2011-10-16T08:32:50Z</time>
      </trkpt>
      <trkpt lat="45.80024" lon="4.64642">
        <ele>401.487793</ele>
        <time>2011-10-16T08:32:52Z</time>
      </trkpt>
      <trkpt lat="45.80006" lon="4.64648">
        <ele>396.2005615</ele>
        <time>2011-10-16T08:33:01Z</time>
      </trkpt>
      <trkpt lat="45.80008" lon="4.64635">
        <ele>396.2005615</ele>
        <time>2011-10-16T08:33:08Z</time>
      </trkpt>
      <trkpt lat="45.8001" lon="4.64627">
        <ele>397.1617432</ele>
        <time>2011-10-16T08:33:13Z</time>
      </trkpt>
      <trkpt lat="45.80012" lon="4.64627">
        <ele>397.1617432</ele>
        <time>2011-10-16T08:33:19Z</time>
      </trkpt>
      <trkpt lat="45.80013" lon="4.64626">
        <ele>397.6424561</ele>
        <time>2011-10-16T08:33:24Z</time>
      </trkpt>
      <trkpt lat="45.80014" lon="4.64624">
        <ele>397.1617432</ele>
        <time>2011-10-16T08:33:28Z</time>
      </trkpt>
      <trkpt lat="45.80012" lon="4.64629">
        <ele>397.1617432</ele>
        <time>2011-10-16T08:33:32Z</time>
      </trkpt>
      <trkpt lat="45.80008" lon="4.6465">
        <ele>397.1617432</ele>
        <time>2011-10-16T08:33:39Z</time>
      </trkpt>
      <trkpt lat="45.80005" lon="4.64664">
        <ele>396.6811523</ele>
        <time>2011-10-16T08:33:46Z</time>
      </trkpt>
      <trkpt lat="45.80005" lon="4.64669">
        <ele>397.1617432</ele>
        <time>2011-10-16T08:33:58Z</time>
      </trkpt>
      <trkpt lat="45.80004" lon="4.64681">
        <ele>395.7198486</ele>
        <time>2011-10-16T08:35:09Z</time>
      </trkpt>
      <trkpt lat="45.8" lon="4.64737">
        <ele>397.1617432</ele>
        <time>2011-10-16T08:35:23Z</time>
      </trkpt>
      <trkpt lat="45.79998" lon="4.64816">
        <ele>399.5650635</ele>
        <time>2011-10-16T08:35:40Z</time>
      </trkpt>
      <trkpt lat="45.79983" lon="4.64865">
        <ele>401.0070801</ele>
        <time>2011-10-16T08:35:50Z</time>
      </trkpt>
      <trkpt lat="45.79958" lon="4.64902">
        <ele>403.4104004</ele>
        <time>2011-10-16T08:36:00Z</time>
      </trkpt>
      <trkpt lat="45.79937" lon="4.64937">
        <ele>402.9296875</ele>
        <time>2011-10-16T08:36:08Z</time>
      </trkpt>
      <trkpt lat="45.7992" lon="4.64985">
        <ele>402.9296875</ele>
        <time>2011-10-16T08:36:17Z</time>
      </trkpt>
      <trkpt lat="45.79889" lon="4.65028">
        <ele>402.9296875</ele>
        <time>2011-10-16T08:36:27Z</time>
      </trkpt>
      <trkpt lat="45.79857" lon="4.65084">
        <ele>404.3717041</ele>
        <time>2011-10-16T08:36:40Z</time>
      </trkpt>
      <trkpt lat="45.79828" lon="4.6513">
        <ele>402.9296875</ele>
        <time>2011-10-16T08:36:54Z</time>
      </trkpt>
      <trkpt lat="45.79799" lon="4.65139">
        <ele>406.2943115</ele>
        <time>2011-10-16T08:37:03Z</time>
      </trkpt>
      <trkpt lat="45.79793" lon="4.65139">
        <ele>407.2556152</ele>
        <time>2011-10-16T08:37:05Z</time>
      </trkpt>
      <trkpt lat="45.79779" lon="4.65138">
        <ele>408.217041</ele>
        <time>2011-10-16T08:37:11Z</time>
      </trkpt>
      <trkpt lat="45.79753" lon="4.65142">
        <ele>409.1783447</ele>
        <time>2011-10-16T08:37:21Z</time>
      </trkpt>
      <trkpt lat="45.79689" lon="4.65151">
        <ele>416.3881836</ele>
        <time>2011-10-16T08:37:48Z</time>
      </trkpt>
      <trkpt lat="45.79686" lon="4.6515">
        <ele>417.8302002</ele>
        <time>2011-10-16T08:37:50Z</time>
      </trkpt>
      <trkpt lat="45.79682" lon="4.65149">
        <ele>418.7915039</ele>
        <time>2011-10-16T08:37:52Z</time>
      </trkpt>
      <trkpt lat="45.79665" lon="4.65149">
        <ele>420.7141113</ele>
        <time>2011-10-16T08:38:01Z</time>
      </trkpt>
      <trkpt lat="45.79646" lon="4.65149">
        <ele>423.1174316</ele>
        <time>2011-10-16T08:38:14Z</time>
      </trkpt>
      <trkpt lat="45.79557" lon="4.64999">
        <ele>422.1560059</ele>
        <time>2011-10-16T08:38:48Z</time>
      </trkpt>
      <trkpt lat="45.79483" lon="4.64982">
        <ele>424.0787354</ele>
        <time>2011-10-16T08:39:07Z</time>
      </trkpt>
      <trkpt lat="45.79435" lon="4.64967">
        <ele>428.885376</ele>
        <time>2011-10-16T08:39:28Z</time>
      </trkpt>
      <trkpt lat="45.79321" lon="4.64962">
        <ele>437.5371094</ele>
        <time>2011-10-16T08:40:19Z</time>
      </trkpt>
      <trkpt lat="45.79322" lon="4.64963">
        <ele>437.0565186</ele>
        <time>2011-10-16T08:40:24Z</time>
      </trkpt>
      <trkpt lat="45.79324" lon="4.64968">
        <ele>437.5371094</ele>
        <time>2011-10-16T08:40:34Z</time>
      </trkpt>
      <trkpt lat="45.79341" lon="4.64982">
        <ele>438.4985352</ele>
        <time>2011-10-16T08:41:13Z</time>
      </trkpt>
      <trkpt lat="45.79362" lon="4.64998">
        <ele>441.3824463</ele>
        <time>2011-10-16T08:41:25Z</time>
      </trkpt>
      <trkpt lat="45.7941" lon="4.65039">
        <ele>447.6309814</ele>
        <time>2011-10-16T08:41:48Z</time>
      </trkpt>
      <trkpt lat="45.79457" lon="4.65102">
        <ele>451.4763184</ele>
        <time>2011-10-16T08:42:19Z</time>
      </trkpt>
      <trkpt lat="45.79467" lon="4.65125">
        <ele>454.8408203</ele>
        <time>2011-10-16T08:42:33Z</time>
      </trkpt>
      <trkpt lat="45.79475" lon="4.65145">
        <ele>457.7249756</ele>
        <time>2011-10-16T08:42:43Z</time>
      </trkpt>
      <trkpt lat="45.7948" lon="4.65155">
        <ele>459.1668701</ele>
        <time>2011-10-16T08:42:52Z</time>
      </trkpt>
      <trkpt lat="45.79488" lon="4.6516">
        <ele>460.1281738</ele>
        <time>2011-10-16T08:43:01Z</time>
      </trkpt>
      <trkpt lat="45.7949" lon="4.65164">
        <ele>461.0894775</ele>
        <time>2011-10-16T08:43:03Z</time>
      </trkpt>
      <trkpt lat="45.79486" lon="4.65169">
        <ele>463.012085</ele>
        <time>2011-10-16T08:43:07Z</time>
      </trkpt>
      <trkpt lat="45.79484" lon="4.65175">
        <ele>463.9733887</ele>
        <time>2011-10-16T08:43:10Z</time>
      </trkpt>
      <trkpt lat="45.79482" lon="4.65202">
        <ele>466.8574219</ele>
        <time>2011-10-16T08:43:25Z</time>
      </trkpt>
      <trkpt lat="45.79485" lon="4.6522">
        <ele>470.2219238</ele>
        <time>2011-10-16T08:43:36Z</time>
      </trkpt>
      <trkpt lat="45.7948" lon="4.6525">
        <ele>472.6253662</ele>
        <time>2011-10-16T08:43:48Z</time>
      </trkpt>
      <trkpt lat="45.7947" lon="4.65283">
        <ele>475.9898682</ele>
        <time>2011-10-16T08:44:01Z</time>
      </trkpt>
      <trkpt lat="45.79449" lon="4.65303">
        <ele>478.8739014</ele>
        <time>2011-10-16T08:44:13Z</time>
      </trkpt>
      <trkpt lat="45.79436" lon="4.65312">
        <ele>480.7966309</ele>
        <time>2011-10-16T08:44:20Z</time>
      </trkpt>
      <trkpt lat="45.79411" lon="4.65331">
        <ele>482.7192383</ele>
        <time>2011-10-16T08:44:31Z</time>
      </trkpt>
      <trkpt lat="45.79381" lon="4.65339">
        <ele>485.6030273</ele>
        <time>2011-10-16T08:44:43Z</time>
      </trkpt>
      <trkpt lat="45.79365" lon="4.65346">
        <ele>488.4871826</ele>
        <time>2011-10-16T08:44:52Z</time>
      </trkpt>
      <trkpt lat="45.7934" lon="4.65359">
        <ele>491.3709717</ele>
        <time>2011-10-16T08:45:06Z</time>
      </trkpt>
      <trkpt lat="45.79319" lon="4.65381">
        <ele>491.8516846</ele>
        <time>2011-10-16T08:45:18Z</time>
      </trkpt>
      <trkpt lat="45.79288" lon="4.65425">
        <ele>494.2550049</ele>
        <time>2011-10-16T08:45:39Z</time>
      </trkpt>
      <trkpt lat="45.7926" lon="4.65511">
        <ele>499.0615234</ele>
        <time>2011-10-16T08:46:16Z</time>
      </trkpt>
      <trkpt lat="45.79233" lon="4.65562">
        <ele>500.50354</ele>
        <time>2011-10-16T08:46:29Z</time>
      </trkpt>
      <trkpt lat="45.79207" lon="4.65611">
        <ele>499.5422363</ele>
        <time>2011-10-16T08:46:41Z</time>
      </trkpt>
      <trkpt lat="45.79168" lon="4.65651">
        <ele>498.5809326</ele>
        <time>2011-10-16T08:46:52Z</time>
      </trkpt>
      <trkpt lat="45.79145" lon="4.65681">
        <ele>498.1003418</ele>
        <time>2011-10-16T08:47:00Z</time>
      </trkpt>
      <trkpt lat="45.79126" lon="4.65708">
        <ele>499.5422363</ele>
        <time>2011-10-16T08:47:10Z</time>
      </trkpt>
      <trkpt lat="45.79118" lon="4.65713">
        <ele>499.5422363</ele>
        <time>2011-10-16T08:47:17Z</time>
      </trkpt>
      <trkpt lat="45.791" lon="4.65733">
        <ele>499.5422363</ele>
        <time>2011-10-16T08:48:14Z</time>
      </trkpt>
      <trkpt lat="45.79098" lon="4.65735">
        <ele>500.0229492</ele>
        <time>2011-10-16T08:48:19Z</time>
      </trkpt>
      <trkpt lat="45.79094" lon="4.65732">
        <ele>499.5422363</ele>
        <time>2011-10-16T08:48:34Z</time>
      </trkpt>
      <trkpt lat="45.79097" lon="4.65731">
        <ele>499.0615234</ele>
        <time>2011-10-16T08:48:42Z</time>
      </trkpt>
      <trkpt lat="45.79101" lon="4.65739">
        <ele>500.0229492</ele>
        <time>2011-10-16T08:50:13Z</time>
      </trkpt>
      <trkpt lat="45.79098" lon="4.6574">
        <ele>500.50354</ele>
        <time>2011-10-16T08:50:29Z</time>
      </trkpt>
      <trkpt lat="45.79089" lon="4.65729">
        <ele>500.9841309</ele>
        <time>2011-10-16T08:50:40Z</time>
      </trkpt>
      <trkpt lat="45.79087" lon="4.65732">
        <ele>500.9841309</ele>
        <time>2011-10-16T08:50:44Z</time>
      </trkpt>
      <trkpt lat="45.79083" lon="4.65737">
        <ele>501.9455566</ele>
        <time>2011-10-16T08:50:48Z</time>
      </trkpt>
      <trkpt lat="45.79083" lon="4.65764">
        <ele>501.4648438</ele>
        <time>2011-10-16T08:51:01Z</time>
      </trkpt>
      <trkpt lat="45.79081" lon="4.65769">
        <ele>501.4648438</ele>
        <time>2011-10-16T08:51:11Z</time>
      </trkpt>
      <trkpt lat="45.79082" lon="4.65767">
        <ele>501.9455566</ele>
        <time>2011-10-16T08:51:15Z</time>
      </trkpt>
      <trkpt lat="45.79087" lon="4.65747">
        <ele>501.4648438</ele>
        <time>2011-10-16T08:51:24Z</time>
      </trkpt>
      <trkpt lat="45.79091" lon="4.65742">
        <ele>500.9841309</ele>
        <time>2011-10-16T08:51:28Z</time>
      </trkpt>
      <trkpt lat="45.79094" lon="4.65741">
        <ele>501.4648438</ele>
        <time>2011-10-16T08:51:30Z</time>
      </trkpt>
      <trkpt lat="45.79099" lon="4.6573">
        <ele>500.9841309</ele>
        <time>2011-10-16T08:51:39Z</time>
      </trkpt>
      <trkpt lat="45.79092" lon="4.65729">
        <ele>500.9841309</ele>
        <time>2011-10-16T08:52:59Z</time>
      </trkpt>
      <trkpt lat="45.79093" lon="4.65721">
        <ele>500.9841309</ele>
        <time>2011-10-16T08:53:45Z</time>
      </trkpt>
      <trkpt lat="45.79113" lon="4.65728">
        <ele>500.50354</ele>
        <time>2011-10-16T08:54:26Z</time>
      </trkpt>
      <trkpt lat="45.79114" lon="4.65737">
        <ele>500.50354</ele>
        <time>2011-10-16T08:54:32Z</time>
      </trkpt>
      <trkpt lat="45.79108" lon="4.65731">
        <ele>500.50354</ele>
        <time>2011-10-16T08:54:40Z</time>
      </trkpt>
      <trkpt lat="45.79108" lon="4.65727">
        <ele>500.50354</ele>
        <time>2011-10-16T08:54:43Z</time>
      </trkpt>
      <trkpt lat="45.79108" lon="4.65719">
        <ele>500.9841309</ele>
        <time>2011-10-16T08:54:48Z</time>
      </trkpt>
      <trkpt lat="45.79092" lon="4.65707">
        <ele>501.9455566</ele>
        <time>2011-10-16T08:54:58Z</time>
      </trkpt>
      <trkpt lat="45.79082" lon="4.65691">
        <ele>502.4261475</ele>
        <time>2011-10-16T08:55:06Z</time>
      </trkpt>
      <trkpt lat="45.79074" lon="4.65686">
        <ele>502.4261475</ele>
        <time>2011-10-16T08:55:10Z</time>
      </trkpt>
      <trkpt lat="45.79053" lon="4.65673">
        <ele>503.8681641</ele>
        <time>2011-10-16T08:55:20Z</time>
      </trkpt>
      <trkpt lat="45.79038" lon="4.65652">
        <ele>505.3101807</ele>
        <time>2011-10-16T08:55:28Z</time>
      </trkpt>
      <trkpt lat="45.79019" lon="4.65621">
        <ele>508.6746826</ele>
        <time>2011-10-16T08:55:41Z</time>
      </trkpt>
      <trkpt lat="45.79009" lon="4.65586">
        <ele>510.1166992</ele>
        <time>2011-10-16T08:55:53Z</time>
      </trkpt>
      <trkpt lat="45.78995" lon="4.65522">
        <ele>513.4814453</ele>
        <time>2011-10-16T08:56:17Z</time>
      </trkpt>
      <trkpt lat="45.78988" lon="4.65481">
        <ele>514.9233398</ele>
        <time>2011-10-16T08:56:28Z</time>
      </trkpt>
      <trkpt lat="45.78984" lon="4.6545">
        <ele>516.8459473</ele>
        <time>2011-10-16T08:56:39Z</time>
      </trkpt>
      <trkpt lat="45.78987" lon="4.65437">
        <ele>520.2105713</ele>
        <time>2011-10-16T08:56:46Z</time>
      </trkpt>
      <trkpt lat="45.78989" lon="4.6541">
        <ele>521.6525879</ele>
        <time>2011-10-16T08:56:57Z</time>
      </trkpt>
      <trkpt lat="45.78992" lon="4.65378">
        <ele>524.536499</ele>
        <time>2011-10-16T08:57:09Z</time>
      </trkpt>
      <trkpt lat="45.79" lon="4.65353">
        <ele>525.0172119</ele>
        <time>2011-10-16T08:57:21Z</time>
      </trkpt>
      <trkpt lat="45.78998" lon="4.6535">
        <ele>525.0172119</ele>
        <time>2011-10-16T08:57:28Z</time>
      </trkpt>
      <trkpt lat="45.79003" lon="4.65338">
        <ele>526.4591064</ele>
        <time>2011-10-16T08:57:52Z</time>
      </trkpt>
      <trkpt lat="45.79007" lon="4.65316">
        <ele>527.4204102</ele>
        <time>2011-10-16T08:58:05Z</time>
      </trkpt>
      <trkpt lat="45.79006" lon="4.65274">
        <ele>529.3431396</ele>
        <time>2011-10-16T08:58:23Z</time>
      </trkpt>
      <trkpt lat="45.79006" lon="4.65213">
        <ele>526.9398193</ele>
        <time>2011-10-16T08:58:46Z</time>
      </trkpt>
      <trkpt lat="45.79029" lon="4.6496">
        <ele>526.4591064</ele>
        <time>2011-10-16T08:59:13Z</time>
      </trkpt>
      <trkpt lat="45.79044" lon="4.64932">
        <ele>526.4591064</ele>
        <time>2011-10-16T08:59:20Z</time>
      </trkpt>
      <trkpt lat="45.79012" lon="4.64901">
        <ele>524.0557861</ele>
        <time>2011-10-16T08:59:26Z</time>
      </trkpt>
      <trkpt lat="45.78982" lon="4.64856">
        <ele>517.807251</ele>
        <time>2011-10-16T08:59:33Z</time>
      </trkpt>
      <trkpt lat="45.7895" lon="4.648">
        <ele>513.4814453</ele>
        <time>2011-10-16T08:59:40Z</time>
      </trkpt>
      <trkpt lat="45.78949" lon="4.64801">
        <ele>513.4814453</ele>
        <time>2011-10-16T08:59:41Z</time>
      </trkpt>
      <trkpt lat="45.78937" lon="4.64783">
        <ele>513.4814453</ele>
        <time>2011-10-16T09:00:10Z</time>
      </trkpt>
      <trkpt lat="45.78863" lon="4.64677">
        <ele>519.7298584</ele>
        <time>2011-10-16T09:00:34Z</time>
      </trkpt>
      <trkpt lat="45.78865" lon="4.64677">
        <ele>519.7298584</ele>
        <time>2011-10-16T09:00:35Z</time>
      </trkpt>
      <trkpt lat="45.78826" lon="4.64612">
        <ele>521.6525879</ele>
        <time>2011-10-16T09:00:54Z</time>
      </trkpt>
      <trkpt lat="45.78834" lon="4.64574">
        <ele>523.0946045</ele>
        <time>2011-10-16T09:01:03Z</time>
      </trkpt>
      <trkpt lat="45.78841" lon="4.64505">
        <ele>524.536499</ele>
        <time>2011-10-16T09:01:21Z</time>
      </trkpt>
      <trkpt lat="45.78806" lon="4.64348">
        <ele>527.4204102</ele>
        <time>2011-10-16T09:01:56Z</time>
      </trkpt>
      <trkpt lat="45.78778" lon="4.64298">
        <ele>529.3431396</ele>
        <time>2011-10-16T09:02:11Z</time>
      </trkpt>
      <trkpt lat="45.78764" lon="4.64213">
        <ele>529.8237305</ele>
        <time>2011-10-16T09:02:41Z</time>
      </trkpt>
      <trkpt lat="45.78756" lon="4.64224">
        <ele>529.3431396</ele>
        <time>2011-10-16T09:03:07Z</time>
      </trkpt>
      <trkpt lat="45.78773" lon="4.64299">
        <ele>530.3044434</ele>
        <time>2011-10-16T09:03:13Z</time>
      </trkpt>
      <trkpt lat="45.7881" lon="4.64429">
        <ele>540.3983154</ele>
        <time>2011-10-16T09:04:18Z</time>
      </trkpt>
      <trkpt lat="45.78795" lon="4.64559">
        <ele>550.4921875</ele>
        <time>2011-10-16T09:05:09Z</time>
      </trkpt>
      <trkpt lat="45.78789" lon="4.64604">
        <ele>550.9726563</ele>
        <time>2011-10-16T09:05:33Z</time>
      </trkpt>
      <trkpt lat="45.78785" lon="4.64643">
        <ele>550.9726563</ele>
        <time>2011-10-16T09:05:45Z</time>
      </trkpt>
      <trkpt lat="45.78787" lon="4.64659">
        <ele>551.4533691</ele>
        <time>2011-10-16T09:05:49Z</time>
      </trkpt>
      <trkpt lat="45.78796" lon="4.64685">
        <ele>551.934082</ele>
        <time>2011-10-16T09:05:53Z</time>
      </trkpt>
      <trkpt lat="45.78793" lon="4.64699">
        <ele>553.8566895</ele>
        <time>2011-10-16T09:05:56Z</time>
      </trkpt>
      <trkpt lat="45.78801" lon="4.64728">
        <ele>556.7407227</ele>
        <time>2011-10-16T09:06:04Z</time>
      </trkpt>
      <trkpt lat="45.78802" lon="4.64737">
        <ele>558.1828613</ele>
        <time>2011-10-16T09:06:06Z</time>
      </trkpt>
      <trkpt lat="45.78811" lon="4.64779">
        <ele>560.5859375</ele>
        <time>2011-10-16T09:06:18Z</time>
      </trkpt>
      <trkpt lat="45.7881" lon="4.64789">
        <ele>561.0666504</ele>
        <time>2011-10-16T09:06:33Z</time>
      </trkpt>
      <trkpt lat="45.78805" lon="4.64814">
        <ele>565.3925781</ele>
        <time>2011-10-16T09:07:11Z</time>
      </trkpt>
      <trkpt lat="45.78807" lon="4.64825">
        <ele>568.7570801</ele>
        <time>2011-10-16T09:07:16Z</time>
      </trkpt>
      <trkpt lat="45.78809" lon="4.64839">
        <ele>569.237793</ele>
        <time>2011-10-16T09:07:27Z</time>
      </trkpt>
      <trkpt lat="45.78804" lon="4.64861">
        <ele>574.0444336</ele>
        <time>2011-10-16T09:08:01Z</time>
      </trkpt>
      <trkpt lat="45.78801" lon="4.64898">
        <ele>575.967041</ele>
        <time>2011-10-16T09:08:15Z</time>
      </trkpt>
      <trkpt lat="45.78799" lon="4.64904">
        <ele>575.967041</ele>
        <time>2011-10-16T09:08:23Z</time>
      </trkpt>
      <trkpt lat="45.78786" lon="4.6493">
        <ele>575.4863281</ele>
        <time>2011-10-16T09:09:30Z</time>
      </trkpt>
      <trkpt lat="45.78793" lon="4.64939">
        <ele>575.4863281</ele>
        <time>2011-10-16T09:10:46Z</time>
      </trkpt>
      <trkpt lat="45.78792" lon="4.64937">
        <ele>575.4863281</ele>
        <time>2011-10-16T09:10:55Z</time>
      </trkpt>
      <trkpt lat="45.78792" lon="4.64946">
        <ele>575.4863281</ele>
        <time>2011-10-16T09:11:10Z</time>
      </trkpt>
      <trkpt lat="45.78779" lon="4.64964">
        <ele>576.4477539</ele>
        <time>2011-10-16T09:11:26Z</time>
      </trkpt>
      <trkpt lat="45.78776" lon="4.64965">
        <ele>577.4091797</ele>
        <time>2011-10-16T09:11:28Z</time>
      </trkpt>
      <trkpt lat="45.78761" lon="4.64962">
        <ele>580.2929688</ele>
        <time>2011-10-16T09:11:38Z</time>
      </trkpt>
      <trkpt lat="45.78728" lon="4.64941">
        <ele>587.0219727</ele>
        <time>2011-10-16T09:12:16Z</time>
      </trkpt>
      <trkpt lat="45.78727" lon="4.64941">
        <ele>587.9833984</ele>
        <time>2011-10-16T09:12:24Z</time>
      </trkpt>
      <trkpt lat="45.78719" lon="4.64935">
        <ele>589.90625</ele>
        <time>2011-10-16T09:12:34Z</time>
      </trkpt>
      <trkpt lat="45.78713" lon="4.6492">
        <ele>592.7902832</ele>
        <time>2011-10-16T09:12:54Z</time>
      </trkpt>
      <trkpt lat="45.78711" lon="4.64893">
        <ele>599.0385742</ele>
        <time>2011-10-16T09:13:14Z</time>
      </trkpt>
      <trkpt lat="45.78703" lon="4.64876">
        <ele>601.4418945</ele>
        <time>2011-10-16T09:13:24Z</time>
      </trkpt>
      <trkpt lat="45.78701" lon="4.64854">
        <ele>603.8452148</ele>
        <time>2011-10-16T09:13:38Z</time>
      </trkpt>
      <trkpt lat="45.78696" lon="4.64841">
        <ele>607.2099609</ele>
        <time>2011-10-16T09:13:48Z</time>
      </trkpt>
      <trkpt lat="45.78693" lon="4.64837">
        <ele>607.6906738</ele>
        <time>2011-10-16T09:13:51Z</time>
      </trkpt>
      <trkpt lat="45.78681" lon="4.64826">
        <ele>612.9777832</ele>
        <time>2011-10-16T09:14:04Z</time>
      </trkpt>
      <trkpt lat="45.78667" lon="4.64814">
        <ele>615.8618164</ele>
        <time>2011-10-16T09:14:16Z</time>
      </trkpt>
      <trkpt lat="45.7866" lon="4.64809">
        <ele>616.822998</ele>
        <time>2011-10-16T09:14:27Z</time>
      </trkpt>
      <trkpt lat="45.78647" lon="4.64833">
        <ele>619.7070313</ele>
        <time>2011-10-16T09:15:05Z</time>
      </trkpt>
      <trkpt lat="45.7864" lon="4.6484">
        <ele>620.1877441</ele>
        <time>2011-10-16T09:15:16Z</time>
      </trkpt>
      <trkpt lat="45.78613" lon="4.64844">
        <ele>624.5136719</ele>
        <time>2011-10-16T09:15:44Z</time>
      </trkpt>
      <trkpt lat="45.78606" lon="4.64842">
        <ele>624.9943848</ele>
        <time>2011-10-16T09:15:51Z</time>
      </trkpt>
      <trkpt lat="45.78591" lon="4.64839">
        <ele>627.3977051</ele>
        <time>2011-10-16T09:16:02Z</time>
      </trkpt>
      <trkpt lat="45.78574" lon="4.64828">
        <ele>630.762207</ele>
        <time>2011-10-16T09:16:14Z</time>
      </trkpt>
      <trkpt lat="45.78534" lon="4.64783">
        <ele>635.5686035</ele>
        <time>2011-10-16T09:16:46Z</time>
      </trkpt>
      <trkpt lat="45.78517" lon="4.64772">
        <ele>635.5686035</ele>
        <time>2011-10-16T09:17:00Z</time>
      </trkpt>
      <trkpt lat="45.78517" lon="4.64769">
        <ele>635.5686035</ele>
        <time>2011-10-16T09:17:07Z</time>
      </trkpt>
      <trkpt lat="45.78516" lon="4.64752">
        <ele>636.0495605</ele>
        <time>2011-10-16T09:17:22Z</time>
      </trkpt>
      <trkpt lat="45.78514" lon="4.64744">
        <ele>636.0495605</ele>
        <time>2011-10-16T09:17:30Z</time>
      </trkpt>
      <trkpt lat="45.78515" lon="4.6474">
        <ele>635.5686035</ele>
        <time>2011-10-16T09:17:48Z</time>
      </trkpt>
      <trkpt lat="45.78522" lon="4.64749">
        <ele>635.5686035</ele>
        <time>2011-10-16T09:17:58Z</time>
      </trkpt>
      <trkpt lat="45.78522" lon="4.64747">
        <ele>635.5686035</ele>
        <time>2011-10-16T09:18:04Z</time>
      </trkpt>
      <trkpt lat="45.78528" lon="4.64752">
        <ele>638.4528809</ele>
        <time>2011-10-16T09:24:24Z</time>
      </trkpt>
      <trkpt lat="45.78509" lon="4.64721">
        <ele>637.4914551</ele>
        <time>2011-10-16T09:26:07Z</time>
      </trkpt>
      <trkpt lat="45.78508" lon="4.64715">
        <ele>636.5302734</ele>
        <time>2011-10-16T09:26:11Z</time>
      </trkpt>
      <trkpt lat="45.78463" lon="4.6459">
        <ele>636.0495605</ele>
        <time>2011-10-16T09:26:59Z</time>
      </trkpt>
      <trkpt lat="45.77906" lon="4.63937">
        <ele>606.2485352</ele>
        <time>2011-10-16T09:32:13Z</time>
      </trkpt>
      <trkpt lat="45.77876" lon="4.63954">
        <ele>605.2873535</ele>
        <time>2011-10-16T09:32:18Z</time>
      </trkpt>
      <trkpt lat="45.77833" lon="4.63964">
        <ele>604.3261719</ele>
        <time>2011-10-16T09:32:27Z</time>
      </trkpt>
      <trkpt lat="45.77819" lon="4.63973">
        <ele>603.8452148</ele>
        <time>2011-10-16T09:32:32Z</time>
      </trkpt>
      <trkpt lat="45.77813" lon="4.63976">
        <ele>603.8452148</ele>
        <time>2011-10-16T09:32:36Z</time>
      </trkpt>
      <trkpt lat="45.77805" lon="4.63976">
        <ele>603.8452148</ele>
        <time>2011-10-16T09:32:40Z</time>
      </trkpt>
      <trkpt lat="45.77802" lon="4.63984">
        <ele>604.3261719</ele>
        <time>2011-10-16T09:32:50Z</time>
      </trkpt>
      <trkpt lat="45.77798" lon="4.63983">
        <ele>602.8837891</ele>
        <time>2011-10-16T09:33:31Z</time>
      </trkpt>
      <trkpt lat="45.77798" lon="4.63984">
        <ele>603.364502</ele>
        <time>2011-10-16T09:33:39Z</time>
      </trkpt>
      <trkpt lat="45.77799" lon="4.63985">
        <ele>603.364502</ele>
        <time>2011-10-16T09:34:15Z</time>
      </trkpt>
      <trkpt lat="45.77797" lon="4.63992">
        <ele>602.8837891</ele>
        <time>2011-10-16T09:34:22Z</time>
      </trkpt>
      <trkpt lat="45.77797" lon="4.63992">
        <ele>603.364502</ele>
        <time>2011-10-16T09:34:35Z</time>
      </trkpt>
      <trkpt lat="45.77796" lon="4.63992">
        <ele>601.9226074</ele>
        <time>2011-10-16T09:35:47Z</time>
      </trkpt>
      <trkpt lat="45.77797" lon="4.64">
        <ele>601.4418945</ele>
        <time>2011-10-16T09:35:54Z</time>
      </trkpt>
      <trkpt lat="45.77804" lon="4.64011">
        <ele>602.8837891</ele>
        <time>2011-10-16T09:36:12Z</time>
      </trkpt>
      <trkpt lat="45.77821" lon="4.64042">
        <ele>603.8452148</ele>
        <time>2011-10-16T09:36:23Z</time>
      </trkpt>
      <trkpt lat="45.77831" lon="4.64074">
        <ele>605.2873535</ele>
        <time>2011-10-16T09:36:32Z</time>
      </trkpt>
      <trkpt lat="45.77845" lon="4.6412">
        <ele>608.1713867</ele>
        <time>2011-10-16T09:36:45Z</time>
      </trkpt>
      <trkpt lat="45.77856" lon="4.64148">
        <ele>611.5358887</ele>
        <time>2011-10-16T09:36:54Z</time>
      </trkpt>
      <trkpt lat="45.77876" lon="4.64183">
        <ele>614.4196777</ele>
        <time>2011-10-16T09:37:06Z</time>
      </trkpt>
      <trkpt lat="45.77896" lon="4.64218">
        <ele>616.822998</ele>
        <time>2011-10-16T09:37:20Z</time>
      </trkpt>
      <trkpt lat="45.77913" lon="4.64251">
        <ele>618.7456055</ele>
        <time>2011-10-16T09:37:35Z</time>
      </trkpt>
      <trkpt lat="45.7792" lon="4.64269">
        <ele>620.668457</ele>
        <time>2011-10-16T09:37:43Z</time>
      </trkpt>
      <trkpt lat="45.7793" lon="4.64289">
        <ele>624.032959</ele>
        <time>2011-10-16T09:37:52Z</time>
      </trkpt>
      <trkpt lat="45.77936" lon="4.64301">
        <ele>626.4362793</ele>
        <time>2011-10-16T09:38:00Z</time>
      </trkpt>
      <trkpt lat="45.77943" lon="4.64319">
        <ele>627.3977051</ele>
        <time>2011-10-16T09:38:11Z</time>
      </trkpt>
      <trkpt lat="45.77952" lon="4.64337">
        <ele>629.3200684</ele>
        <time>2011-10-16T09:38:19Z</time>
      </trkpt>
      <trkpt lat="45.77955" lon="4.64345">
        <ele>630.2814941</ele>
        <time>2011-10-16T09:38:26Z</time>
      </trkpt>
      <trkpt lat="45.77959" lon="4.6435">
        <ele>630.762207</ele>
        <time>2011-10-16T09:38:30Z</time>
      </trkpt>
      <trkpt lat="45.77965" lon="4.64366">
        <ele>632.6848145</ele>
        <time>2011-10-16T09:38:37Z</time>
      </trkpt>
      <trkpt lat="45.77972" lon="4.6439">
        <ele>636.0495605</ele>
        <time>2011-10-16T09:38:46Z</time>
      </trkpt>
      <trkpt lat="45.77993" lon="4.64418">
        <ele>639.4140625</ele>
        <time>2011-10-16T09:38:56Z</time>
      </trkpt>
      <trkpt lat="45.78018" lon="4.64452">
        <ele>640.3754883</ele>
        <time>2011-10-16T09:39:13Z</time>
      </trkpt>
      <trkpt lat="45.78018" lon="4.64451">
        <ele>640.3754883</ele>
        <time>2011-10-16T09:39:18Z</time>
      </trkpt>
      <trkpt lat="45.7802" lon="4.64447">
        <ele>639.8947754</ele>
        <time>2011-10-16T09:39:48Z</time>
      </trkpt>
      <trkpt lat="45.78022" lon="4.64454">
        <ele>639.8947754</ele>
        <time>2011-10-16T09:39:53Z</time>
      </trkpt>
      <trkpt lat="45.78078" lon="4.64511">
        <ele>626.9169922</ele>
        <time>2011-10-16T09:40:14Z</time>
      </trkpt>
      <trkpt lat="45.78103" lon="4.64535">
        <ele>618.2648926</ele>
        <time>2011-10-16T09:40:22Z</time>
      </trkpt>
      <trkpt lat="45.78147" lon="4.64559">
        <ele>611.5358887</ele>
        <time>2011-10-16T09:40:29Z</time>
      </trkpt>
      <trkpt lat="45.78172" lon="4.64584">
        <ele>611.0551758</ele>
        <time>2011-10-16T09:40:33Z</time>
      </trkpt>
      <trkpt lat="45.78187" lon="4.64598">
        <ele>611.0551758</ele>
        <time>2011-10-16T09:40:35Z</time>
      </trkpt>
      <trkpt lat="45.78272" lon="4.64659">
        <ele>611.0551758</ele>
        <time>2011-10-16T09:40:48Z</time>
      </trkpt>
      <trkpt lat="45.78387" lon="4.64964">
        <ele>596.635498</ele>
        <time>2011-10-16T09:41:31Z</time>
      </trkpt>
      <trkpt lat="45.78405" lon="4.64991">
        <ele>592.7902832</ele>
        <time>2011-10-16T09:41:34Z</time>
      </trkpt>
      <trkpt lat="45.78419" lon="4.64995">
        <ele>591.3481445</ele>
        <time>2011-10-16T09:41:37Z</time>
      </trkpt>
      <trkpt lat="45.7861" lon="4.65055">
        <ele>573.083252</ele>
        <time>2011-10-16T09:42:27Z</time>
      </trkpt>
      <trkpt lat="45.78641" lon="4.6506">
        <ele>572.6025391</ele>
        <time>2011-10-16T09:42:32Z</time>
      </trkpt>
      <trkpt lat="45.787" lon="4.65049">
        <ele>569.7185059</ele>
        <time>2011-10-16T09:42:43Z</time>
      </trkpt>
      <trkpt lat="45.78714" lon="4.65055">
        <ele>566.3537598</ele>
        <time>2011-10-16T09:42:45Z</time>
      </trkpt>
      <trkpt lat="45.78764" lon="4.65086">
        <ele>562.0280762</ele>
        <time>2011-10-16T09:42:51Z</time>
      </trkpt>
      <trkpt lat="45.78784" lon="4.6512">
        <ele>554.3374023</ele>
        <time>2011-10-16T09:42:56Z</time>
      </trkpt>
      <trkpt lat="45.78792" lon="4.65134">
        <ele>552.4145508</ele>
        <time>2011-10-16T09:42:58Z</time>
      </trkpt>
      <trkpt lat="45.78797" lon="4.65143">
        <ele>550.9726563</ele>
        <time>2011-10-16T09:43:00Z</time>
      </trkpt>
      <trkpt lat="45.78842" lon="4.65187">
        <ele>542.3209229</ele>
        <time>2011-10-16T09:43:10Z</time>
      </trkpt>
      <trkpt lat="45.78859" lon="4.65201">
        <ele>538.9562988</ele>
        <time>2011-10-16T09:43:14Z</time>
      </trkpt>
      <trkpt lat="45.78867" lon="4.65207">
        <ele>537.9949951</ele>
        <time>2011-10-16T09:43:16Z</time>
      </trkpt>
      <trkpt lat="45.78886" lon="4.6522">
        <ele>534.1496582</ele>
        <time>2011-10-16T09:43:20Z</time>
      </trkpt>
      <trkpt lat="45.78919" lon="4.65247">
        <ele>531.2657471</ele>
        <time>2011-10-16T09:43:27Z</time>
      </trkpt>
      <trkpt lat="45.78958" lon="4.65297">
        <ele>527.901001</ele>
        <time>2011-10-16T09:43:37Z</time>
      </trkpt>
      <trkpt lat="45.78988" lon="4.65345">
        <ele>524.0557861</ele>
        <time>2011-10-16T09:43:46Z</time>
      </trkpt>
      <trkpt lat="45.7899" lon="4.65397">
        <ele>512.0394287</ele>
        <time>2011-10-16T09:44:25Z</time>
      </trkpt>
      <trkpt lat="45.78991" lon="4.65406">
        <ele>512.0394287</ele>
        <time>2011-10-16T09:44:26Z</time>
      </trkpt>
      <trkpt lat="45.79036" lon="4.65653">
        <ele>509.6361084</ele>
        <time>2011-10-16T09:44:30Z</time>
      </trkpt>
      <trkpt lat="45.79031" lon="4.65666">
        <ele>506.7520752</ele>
        <time>2011-10-16T09:44:32Z</time>
      </trkpt>
      <trkpt lat="45.79116" lon="4.65713">
        <ele>505.7908936</ele>
        <time>2011-10-16T09:44:40Z</time>
      </trkpt>
      <trkpt lat="45.79115" lon="4.65729">
        <ele>505.3101807</ele>
        <time>2011-10-16T09:44:46Z</time>
      </trkpt>
      <trkpt lat="45.7912" lon="4.65729">
        <ele>504.8294678</ele>
        <time>2011-10-16T09:44:48Z</time>
      </trkpt>
      <trkpt lat="45.79108" lon="4.6573">
        <ele>505.3101807</ele>
        <time>2011-10-16T09:44:56Z</time>
      </trkpt>
      <trkpt lat="45.79109" lon="4.6572">
        <ele>505.7908936</ele>
        <time>2011-10-16T09:45:08Z</time>
      </trkpt>
      <trkpt lat="45.79098" lon="4.65723">
        <ele>506.2714844</ele>
        <time>2011-10-16T09:47:09Z</time>
      </trkpt>
      <trkpt lat="45.79101" lon="4.65729">
        <ele>505.7908936</ele>
        <time>2011-10-16T09:48:20Z</time>
      </trkpt>
      <trkpt lat="45.79101" lon="4.65732">
        <ele>505.7908936</ele>
        <time>2011-10-16T09:48:57Z</time>
      </trkpt>
      <trkpt lat="45.79102" lon="4.65723">
        <ele>505.3101807</ele>
        <time>2011-10-16T09:49:07Z</time>
      </trkpt>
      <trkpt lat="45.791" lon="4.6572">
        <ele>504.8294678</ele>
        <time>2011-10-16T09:50:17Z</time>
      </trkpt>
      <trkpt lat="45.79102" lon="4.6572">
        <ele>504.8294678</ele>
        <time>2011-10-16T09:50:19Z</time>
      </trkpt>
      <trkpt lat="45.79119" lon="4.65721">
        <ele>502.9067383</ele>
        <time>2011-10-16T09:50:22Z</time>
      </trkpt>
      <trkpt lat="45.7914" lon="4.65728">
        <ele>499.5422363</ele>
        <time>2011-10-16T09:50:29Z</time>
      </trkpt>
      <trkpt lat="45.79149" lon="4.6573">
        <ele>497.6196289</ele>
        <time>2011-10-16T09:50:32Z</time>
      </trkpt>
      <trkpt lat="45.79157" lon="4.65732">
        <ele>496.1777344</ele>
        <time>2011-10-16T09:50:35Z</time>
      </trkpt>
      <trkpt lat="45.7917" lon="4.65734">
        <ele>491.3709717</ele>
        <time>2011-10-16T09:50:38Z</time>
      </trkpt>
      <trkpt lat="45.79186" lon="4.65737">
        <ele>489.9290771</ele>
        <time>2011-10-16T09:50:41Z</time>
      </trkpt>
      <trkpt lat="45.79212" lon="4.65742">
        <ele>486.5644531</ele>
        <time>2011-10-16T09:50:46Z</time>
      </trkpt>
      <trkpt lat="45.79233" lon="4.65745">
        <ele>483.1998291</ele>
        <time>2011-10-16T09:50:50Z</time>
      </trkpt>
      <trkpt lat="45.79298" lon="4.6575">
        <ele>476.9512939</ele>
        <time>2011-10-16T09:51:01Z</time>
      </trkpt>
      <trkpt lat="45.79311" lon="4.65751">
        <ele>473.5866699</ele>
        <time>2011-10-16T09:51:03Z</time>
      </trkpt>
      <trkpt lat="45.79339" lon="4.65751">
        <ele>470.7026367</ele>
        <time>2011-10-16T09:51:07Z</time>
      </trkpt>
      <trkpt lat="45.79381" lon="4.65755">
        <ele>467.3381348</ele>
        <time>2011-10-16T09:51:14Z</time>
      </trkpt>
      <trkpt lat="45.79453" lon="4.65765">
        <ele>458.2055664</ele>
        <time>2011-10-16T09:51:27Z</time>
      </trkpt>
      <trkpt lat="45.79514" lon="4.6578">
        <ele>452.4376221</ele>
        <time>2011-10-16T09:51:37Z</time>
      </trkpt>
      <trkpt lat="45.79554" lon="4.65792">
        <ele>449.072998</ele>
        <time>2011-10-16T09:51:43Z</time>
      </trkpt>
      <trkpt lat="45.79641" lon="4.65805">
        <ele>446.1890869</ele>
        <time>2011-10-16T09:51:55Z</time>
      </trkpt>
      <trkpt lat="45.79649" lon="4.65804">
        <ele>446.1890869</ele>
        <time>2011-10-16T09:51:56Z</time>
      </trkpt>
      <trkpt lat="45.7969" lon="4.65785">
        <ele>445.2276611</ele>
        <time>2011-10-16T09:52:02Z</time>
      </trkpt>
      <trkpt lat="45.79702" lon="4.65779">
        <ele>444.7470703</ele>
        <time>2011-10-16T09:52:07Z</time>
      </trkpt>
      <trkpt lat="45.7971" lon="4.65775">
        <ele>444.2664795</ele>
        <time>2011-10-16T09:52:14Z</time>
      </trkpt>
      <trkpt lat="45.7974" lon="4.65765">
        <ele>444.7470703</ele>
        <time>2011-10-16T09:52:44Z</time>
      </trkpt>
      <trkpt lat="45.79742" lon="4.65766">
        <ele>442.8244629</ele>
        <time>2011-10-16T09:53:21Z</time>
      </trkpt>
      <trkpt lat="45.79742" lon="4.65766">
        <ele>446.1890869</ele>
        <time>2011-10-16T09:53:22Z</time>
      </trkpt>
      <trkpt lat="45.79742" lon="4.65766">
        <ele>444.7470703</ele>
        <time>2011-10-16T09:53:23Z</time>
      </trkpt>
      <trkpt lat="45.79743" lon="4.65768">
        <ele>444.2664795</ele>
        <time>2011-10-16T09:56:39Z</time>
      </trkpt>
      <trkpt lat="45.79745" lon="4.65766">
        <ele>443.7857666</ele>
        <time>2011-10-16T09:57:28Z</time>
      </trkpt>
      <trkpt lat="45.79742" lon="4.65765">
        <ele>444.7470703</ele>
        <time>2011-10-16T09:58:11Z</time>
      </trkpt>
      <trkpt lat="45.79743" lon="4.65764">
        <ele>444.7470703</ele>
        <time>2011-10-16T09:58:28Z</time>
      </trkpt>
      <trkpt lat="45.79744" lon="4.65764">
        <ele>444.7470703</ele>
        <time>2011-10-16T09:59:05Z</time>
      </trkpt>
      <trkpt lat="45.79742" lon="4.65762">
        <ele>444.2664795</ele>
        <time>2011-10-16T09:59:25Z</time>
      </trkpt>
      <trkpt lat="45.79741" lon="4.65764">
        <ele>444.7470703</ele>
        <time>2011-10-16T09:59:32Z</time>
      </trkpt>
      <trkpt lat="45.79741" lon="4.65762">
        <ele>445.2276611</ele>
        <time>2011-10-16T10:00:19Z</time>
      </trkpt>
      <trkpt lat="45.79747" lon="4.6577">
        <ele>444.7470703</ele>
        <time>2011-10-16T10:00:26Z</time>
      </trkpt>
      <trkpt lat="45.79742" lon="4.65775">
        <ele>444.7470703</ele>
        <time>2011-10-16T10:00:33Z</time>
      </trkpt>
      <trkpt lat="45.79741" lon="4.65774">
        <ele>444.2664795</ele>
        <time>2011-10-16T10:00:34Z</time>
      </trkpt>
      <trkpt lat="45.79742" lon="4.6577">
        <ele>445.2276611</ele>
        <time>2011-10-16T10:00:41Z</time>
      </trkpt>
      <trkpt lat="45.79747" lon="4.65766">
        <ele>441.8631592</ele>
        <time>2011-10-16T10:03:02Z</time>
      </trkpt>
      <trkpt lat="45.79747" lon="4.65766">
        <ele>445.2276611</ele>
        <time>2011-10-16T10:03:04Z</time>
      </trkpt>
      <trkpt lat="45.79747" lon="4.65766">
        <ele>441.3824463</ele>
        <time>2011-10-16T10:03:08Z</time>
      </trkpt>
      <trkpt lat="45.79747" lon="4.65766">
        <ele>444.7470703</ele>
        <time>2011-10-16T10:03:10Z</time>
      </trkpt>
      <trkpt lat="45.79748" lon="4.65766">
        <ele>438.979126</ele>
        <time>2011-10-16T10:03:58Z</time>
      </trkpt>
      <trkpt lat="45.79748" lon="4.65766">
        <ele>443.3050537</ele>
        <time>2011-10-16T10:03:59Z</time>
      </trkpt>
      <trkpt lat="45.79748" lon="4.65766">
        <ele>447.6309814</ele>
        <time>2011-10-16T10:04:00Z</time>
      </trkpt>
      <trkpt lat="45.79748" lon="4.65766">
        <ele>443.3050537</ele>
        <time>2011-10-16T10:04:01Z</time>
      </trkpt>
      <trkpt lat="45.79745" lon="4.65765">
        <ele>443.7857666</ele>
        <time>2011-10-16T10:04:12Z</time>
      </trkpt>
      <trkpt lat="45.79743" lon="4.65768">
        <ele>443.7857666</ele>
        <time>2011-10-16T10:04:36Z</time>
      </trkpt>
      <trkpt lat="45.79744" lon="4.65769">
        <ele>443.3050537</ele>
        <time>2011-10-16T10:05:33Z</time>
      </trkpt>
      <trkpt lat="45.79745" lon="4.65768">
        <ele>443.7857666</ele>
        <time>2011-10-16T10:06:03Z</time>
      </trkpt>
      <trkpt lat="45.7975" lon="4.65769">
        <ele>444.2664795</ele>
        <time>2011-10-16T10:06:09Z</time>
      </trkpt>
      <trkpt lat="45.7975" lon="4.6577">
        <ele>443.7857666</ele>
        <time>2011-10-16T10:06:10Z</time>
      </trkpt>
      <trkpt lat="45.79737" lon="4.65777">
        <ele>443.7857666</ele>
        <time>2011-10-16T10:06:17Z</time>
      </trkpt>
      <trkpt lat="45.79708" lon="4.65792">
        <ele>443.7857666</ele>
        <time>2011-10-16T10:06:29Z</time>
      </trkpt>
      <trkpt lat="45.79694" lon="4.658">
        <ele>444.2664795</ele>
        <time>2011-10-16T10:06:37Z</time>
      </trkpt>
      <trkpt lat="45.79679" lon="4.65807">
        <ele>444.7470703</ele>
        <time>2011-10-16T10:06:47Z</time>
      </trkpt>
      <trkpt lat="45.79657" lon="4.65818">
        <ele>445.708374</ele>
        <time>2011-10-16T10:07:00Z</time>
      </trkpt>
      <trkpt lat="45.7964" lon="4.65823">
        <ele>446.1890869</ele>
        <time>2011-10-16T10:07:10Z</time>
      </trkpt>
      <trkpt lat="45.7962" lon="4.65828">
        <ele>448.1118164</ele>
        <time>2011-10-16T10:07:22Z</time>
      </trkpt>
      <trkpt lat="45.79602" lon="4.6583">
        <ele>449.072998</ele>
        <time>2011-10-16T10:07:36Z</time>
      </trkpt>
      <trkpt lat="45.79584" lon="4.65832">
        <ele>450.0344238</ele>
        <time>2011-10-16T10:07:52Z</time>
      </trkpt>
      <trkpt lat="45.79582" lon="4.65832">
        <ele>450.0344238</ele>
        <time>2011-10-16T10:08:04Z</time>
      </trkpt>
      <trkpt lat="45.79582" lon="4.65836">
        <ele>450.9956055</ele>
        <time>2011-10-16T10:08:22Z</time>
      </trkpt>
      <trkpt lat="45.79582" lon="4.65833">
        <ele>449.5537109</ele>
        <time>2011-10-16T10:08:50Z</time>
      </trkpt>
      <trkpt lat="45.79587" lon="4.65833">
        <ele>448.1118164</ele>
        <time>2011-10-16T10:08:57Z</time>
      </trkpt>
      <trkpt lat="45.79615" lon="4.65829">
        <ele>445.2276611</ele>
        <time>2011-10-16T10:09:16Z</time>
      </trkpt>
      <trkpt lat="45.7973" lon="4.65779">
        <ele>444.2664795</ele>
        <time>2011-10-16T10:09:24Z</time>
      </trkpt>
      <trkpt lat="45.79748" lon="4.65765">
        <ele>443.7857666</ele>
        <time>2011-10-16T10:09:30Z</time>
      </trkpt>
      <trkpt lat="45.7975" lon="4.65766">
        <ele>443.3050537</ele>
        <time>2011-10-16T10:09:39Z</time>
      </trkpt>
      <trkpt lat="45.79745" lon="4.65768">
        <ele>442.8244629</ele>
        <time>2011-10-16T10:10:10Z</time>
      </trkpt>
      <trkpt lat="45.79741" lon="4.65771">
        <ele>442.8244629</ele>
        <time>2011-10-16T10:10:22Z</time>
      </trkpt>
      <trkpt lat="45.79743" lon="4.65769">
        <ele>442.3438721</ele>
        <time>2011-10-16T10:10:55Z</time>
      </trkpt>
      <trkpt lat="45.79742" lon="4.65771">
        <ele>442.3438721</ele>
        <time>2011-10-16T10:12:20Z</time>
      </trkpt>
      <trkpt lat="45.79741" lon="4.6577">
        <ele>442.8244629</ele>
        <time>2011-10-16T10:13:48Z</time>
      </trkpt>
      <trkpt lat="45.79741" lon="4.6577">
        <ele>442.8244629</ele>
        <time>2011-10-16T10:14:04Z</time>
      </trkpt>
      <trkpt lat="45.79755" lon="4.65765">
        <ele>443.3050537</ele>
        <time>2011-10-16T10:14:09Z</time>
      </trkpt>
      <trkpt lat="45.79781" lon="4.6576">
        <ele>443.7857666</ele>
        <time>2011-10-16T10:14:17Z</time>
      </trkpt>
      <trkpt lat="45.7982" lon="4.6576">
        <ele>444.7470703</ele>
        <time>2011-10-16T10:14:28Z</time>
      </trkpt>
      <trkpt lat="45.79854" lon="4.65758">
        <ele>444.2664795</ele>
        <time>2011-10-16T10:14:40Z</time>
      </trkpt>
      <trkpt lat="45.79901" lon="4.65752">
        <ele>445.708374</ele>
        <time>2011-10-16T10:14:56Z</time>
      </trkpt>
      <trkpt lat="45.7996" lon="4.65743">
        <ele>444.2664795</ele>
        <time>2011-10-16T10:15:14Z</time>
      </trkpt>
      <trkpt lat="45.79981" lon="4.65682">
        <ele>441.3824463</ele>
        <time>2011-10-16T10:15:28Z</time>
      </trkpt>
      <trkpt lat="45.80042" lon="4.65537">
        <ele>436.5759277</ele>
        <time>2011-10-16T10:15:57Z</time>
      </trkpt>
      <trkpt lat="45.80064" lon="4.65494">
        <ele>436.0952148</ele>
        <time>2011-10-16T10:16:05Z</time>
      </trkpt>
      <trkpt lat="45.8009" lon="4.65442">
        <ele>437.0565186</ele>
        <time>2011-10-16T10:16:15Z</time>
      </trkpt>
      <trkpt lat="45.80117" lon="4.65389">
        <ele>437.0565186</ele>
        <time>2011-10-16T10:16:26Z</time>
      </trkpt>
      <trkpt lat="45.80139" lon="4.65342">
        <ele>437.0565186</ele>
        <time>2011-10-16T10:16:36Z</time>
      </trkpt>
      <trkpt lat="45.80166" lon="4.65286">
        <ele>437.0565186</ele>
        <time>2011-10-16T10:16:47Z</time>
      </trkpt>
      <trkpt lat="45.80194" lon="4.6524">
        <ele>435.1339111</ele>
        <time>2011-10-16T10:16:57Z</time>
      </trkpt>
      <trkpt lat="45.80209" lon="4.65209">
        <ele>432.7307129</ele>
        <time>2011-10-16T10:17:03Z</time>
      </trkpt>
      <trkpt lat="45.80239" lon="4.65155">
        <ele>431.2885742</ele>
        <time>2011-10-16T10:17:13Z</time>
      </trkpt>
      <trkpt lat="45.80272" lon="4.65101">
        <ele>429.3659668</ele>
        <time>2011-10-16T10:17:22Z</time>
      </trkpt>
      <trkpt lat="45.80288" lon="4.65053">
        <ele>428.885376</ele>
        <time>2011-10-16T10:17:30Z</time>
      </trkpt>
      <trkpt lat="45.80304" lon="4.64994">
        <ele>428.4046631</ele>
        <time>2011-10-16T10:17:41Z</time>
      </trkpt>
      <trkpt lat="45.80325" lon="4.64933">
        <ele>429.3659668</ele>
        <time>2011-10-16T10:17:53Z</time>
      </trkpt>
      <trkpt lat="45.80341" lon="4.64907">
        <ele>428.4046631</ele>
        <time>2011-10-16T10:17:59Z</time>
      </trkpt>
      <trkpt lat="45.80348" lon="4.64897">
        <ele>426.9627686</ele>
        <time>2011-10-16T10:18:01Z</time>
      </trkpt>
      <trkpt lat="45.80382" lon="4.64803">
        <ele>420.7141113</ele>
        <time>2011-10-16T10:18:20Z</time>
      </trkpt>
      <trkpt lat="45.80391" lon="4.64796">
        <ele>419.7528076</ele>
        <time>2011-10-16T10:18:22Z</time>
      </trkpt>
      <trkpt lat="45.80406" lon="4.64786">
        <ele>418.7915039</ele>
        <time>2011-10-16T10:18:25Z</time>
      </trkpt>
      <trkpt lat="45.8042" lon="4.64764">
        <ele>416.3881836</ele>
        <time>2011-10-16T10:18:29Z</time>
      </trkpt>
      <trkpt lat="45.80438" lon="4.64698">
        <ele>410.6202393</ele>
        <time>2011-10-16T10:18:37Z</time>
      </trkpt>
      <trkpt lat="45.80445" lon="4.64678">
        <ele>409.6590576</ele>
        <time>2011-10-16T10:18:39Z</time>
      </trkpt>
      <trkpt lat="45.80489" lon="4.64583">
        <ele>406.7749023</ele>
        <time>2011-10-16T10:18:50Z</time>
      </trkpt>
      <trkpt lat="45.80498" lon="4.64569">
        <ele>406.7749023</ele>
        <time>2011-10-16T10:18:55Z</time>
      </trkpt>
      <trkpt lat="45.8051" lon="4.6454">
        <ele>406.7749023</ele>
        <time>2011-10-16T10:19:05Z</time>
      </trkpt>
      <trkpt lat="45.80522" lon="4.64521">
        <ele>406.2943115</ele>
        <time>2011-10-16T10:19:09Z</time>
      </trkpt>
      <trkpt lat="45.80541" lon="4.64469">
        <ele>405.3330078</ele>
        <time>2011-10-16T10:19:17Z</time>
      </trkpt>
      <trkpt lat="45.80571" lon="4.644">
        <ele>404.8522949</ele>
        <time>2011-10-16T10:19:27Z</time>
      </trkpt>
      <trkpt lat="45.80604" lon="4.64324">
        <ele>404.3717041</ele>
        <time>2011-10-16T10:19:38Z</time>
      </trkpt>
      <trkpt lat="45.80634" lon="4.64236">
        <ele>402.9296875</ele>
        <time>2011-10-16T10:19:51Z</time>
      </trkpt>
      <trkpt lat="45.80638" lon="4.64176">
        <ele>401.9685059</ele>
        <time>2011-10-16T10:19:59Z</time>
      </trkpt>
      <trkpt lat="45.80649" lon="4.6415">
        <ele>401.0070801</ele>
        <time>2011-10-16T10:20:03Z</time>
      </trkpt>
      <trkpt lat="45.80672" lon="4.64149">
        <ele>399.0843506</ele>
        <time>2011-10-16T10:20:08Z</time>
      </trkpt>
      <trkpt lat="45.80682" lon="4.64164">
        <ele>398.6037598</ele>
        <time>2011-10-16T10:20:11Z</time>
      </trkpt>
      <trkpt lat="45.807" lon="4.64195">
        <ele>397.6424561</ele>
        <time>2011-10-16T10:20:16Z</time>
      </trkpt>
      <trkpt lat="45.80726" lon="4.64217">
        <ele>396.6811523</ele>
        <time>2011-10-16T10:20:21Z</time>
      </trkpt>
      <trkpt lat="45.80774" lon="4.64221">
        <ele>394.7585449</ele>
        <time>2011-10-16T10:20:28Z</time>
      </trkpt>
      <trkpt lat="45.80874" lon="4.64223">
        <ele>393.7972412</ele>
        <time>2011-10-16T10:20:42Z</time>
      </trkpt>
      <trkpt lat="45.8092" lon="4.6421">
        <ele>393.7972412</ele>
        <time>2011-10-16T10:20:50Z</time>
      </trkpt>
      <trkpt lat="45.80941" lon="4.64199">
        <ele>394.7585449</ele>
        <time>2011-10-16T10:20:54Z</time>
      </trkpt>
      <trkpt lat="45.8095" lon="4.64193">
        <ele>394.7585449</ele>
        <time>2011-10-16T10:20:56Z</time>
      </trkpt>
      <trkpt lat="45.80979" lon="4.64166">
        <ele>396.2005615</ele>
        <time>2011-10-16T10:21:03Z</time>
      </trkpt>
      <trkpt lat="45.81005" lon="4.64122">
        <ele>397.1617432</ele>
        <time>2011-10-16T10:21:12Z</time>
      </trkpt>
      <trkpt lat="45.81025" lon="4.64069">
        <ele>398.1231689</ele>
        <time>2011-10-16T10:21:22Z</time>
      </trkpt>
      <trkpt lat="45.8105" lon="4.64006">
        <ele>395.2391357</ele>
        <time>2011-10-16T10:21:32Z</time>
      </trkpt>
      <trkpt lat="45.81072" lon="4.63952">
        <ele>392.8359375</ele>
        <time>2011-10-16T10:21:38Z</time>
      </trkpt>
      <trkpt lat="45.81102" lon="4.63895">
        <ele>391.8745117</ele>
        <time>2011-10-16T10:21:44Z</time>
      </trkpt>
      <trkpt lat="45.81119" lon="4.6387">
        <ele>390.4326172</ele>
        <time>2011-10-16T10:21:47Z</time>
      </trkpt>
      <trkpt lat="45.81166" lon="4.63843">
        <ele>388.5100098</ele>
        <time>2011-10-16T10:21:54Z</time>
      </trkpt>
      <trkpt lat="45.81182" lon="4.63839">
        <ele>388.0292969</ele>
        <time>2011-10-16T10:21:56Z</time>
      </trkpt>
      <trkpt lat="45.81223" lon="4.6387">
        <ele>388.9906006</ele>
        <time>2011-10-16T10:22:04Z</time>
      </trkpt>
      <trkpt lat="45.81278" lon="4.63927">
        <ele>389.9519043</ele>
        <time>2011-10-16T10:22:16Z</time>
      </trkpt>
      <trkpt lat="45.81305" lon="4.63955">
        <ele>391.8745117</ele>
        <time>2011-10-16T10:22:23Z</time>
      </trkpt>
      <trkpt lat="45.81361" lon="4.63993">
        <ele>393.3165283</ele>
        <time>2011-10-16T10:22:38Z</time>
      </trkpt>
      <trkpt lat="45.81384" lon="4.64">
        <ele>395.2391357</ele>
        <time>2011-10-16T10:22:47Z</time>
      </trkpt>
      <trkpt lat="45.81388" lon="4.63999">
        <ele>395.2391357</ele>
        <time>2011-10-16T10:22:49Z</time>
      </trkpt>
      <trkpt lat="45.81403" lon="4.63969">
        <ele>397.6424561</ele>
        <time>2011-10-16T10:23:00Z</time>
      </trkpt>
      <trkpt lat="45.81412" lon="4.63945">
        <ele>398.6037598</ele>
        <time>2011-10-16T10:23:10Z</time>
      </trkpt>
      <trkpt lat="45.81419" lon="4.63919">
        <ele>401.487793</ele>
        <time>2011-10-16T10:23:18Z</time>
      </trkpt>
      <trkpt lat="45.81421" lon="4.63897">
        <ele>404.3717041</ele>
        <time>2011-10-16T10:23:25Z</time>
      </trkpt>
      <trkpt lat="45.8142" lon="4.63881">
        <ele>406.2943115</ele>
        <time>2011-10-16T10:23:30Z</time>
      </trkpt>
      <trkpt lat="45.81414" lon="4.63876">
        <ele>407.2556152</ele>
        <time>2011-10-16T10:23:33Z</time>
      </trkpt>
      <trkpt lat="45.81403" lon="4.63873">
        <ele>407.7363281</ele>
        <time>2011-10-16T10:23:37Z</time>
      </trkpt>
      <trkpt lat="45.81374" lon="4.63866">
        <ele>411.1009521</ele>
        <time>2011-10-16T10:23:49Z</time>
      </trkpt>
      <trkpt lat="45.81367" lon="4.63859">
        <ele>412.5428467</ele>
        <time>2011-10-16T10:23:54Z</time>
      </trkpt>
      <trkpt lat="45.81364" lon="4.63857">
        <ele>413.5042725</ele>
        <time>2011-10-16T10:23:56Z</time>
      </trkpt>
      <trkpt lat="45.81377" lon="4.63838">
        <ele>414.946167</ele>
        <time>2011-10-16T10:24:05Z</time>
      </trkpt>
      <trkpt lat="45.81402" lon="4.63816">
        <ele>416.8688965</ele>
        <time>2011-10-16T10:24:14Z</time>
      </trkpt>
      <trkpt lat="45.81441" lon="4.63791">
        <ele>419.7528076</ele>
        <time>2011-10-16T10:24:25Z</time>
      </trkpt>
      <trkpt lat="45.81486" lon="4.63774">
        <ele>423.1174316</ele>
        <time>2011-10-16T10:24:38Z</time>
      </trkpt>
      <trkpt lat="45.81497" lon="4.63771">
        <ele>424.5594482</ele>
        <time>2011-10-16T10:24:41Z</time>
      </trkpt>
      <trkpt lat="45.81511" lon="4.63767">
        <ele>426.0013428</ele>
        <time>2011-10-16T10:24:45Z</time>
      </trkpt>
      <trkpt lat="45.81532" lon="4.63763">
        <ele>428.885376</ele>
        <time>2011-10-16T10:24:51Z</time>
      </trkpt>
      <trkpt lat="45.81557" lon="4.63762">
        <ele>431.2885742</ele>
        <time>2011-10-16T10:24:59Z</time>
      </trkpt>
      <trkpt lat="45.81567" lon="4.63759">
        <ele>431.769165</ele>
        <time>2011-10-16T10:25:01Z</time>
      </trkpt>
      <trkpt lat="45.81594" lon="4.63756">
        <ele>434.1726074</ele>
        <time>2011-10-16T10:25:08Z</time>
      </trkpt>
      <trkpt lat="45.81601" lon="4.63756">
        <ele>436.0952148</ele>
        <time>2011-10-16T10:25:10Z</time>
      </trkpt>
      <trkpt lat="45.81626" lon="4.63755">
        <ele>438.979126</ele>
        <time>2011-10-16T10:25:20Z</time>
      </trkpt>
      <trkpt lat="45.81651" lon="4.63745">
        <ele>440.4212646</ele>
        <time>2011-10-16T10:25:29Z</time>
      </trkpt>
      <trkpt lat="45.81691" lon="4.63705">
        <ele>441.3824463</ele>
        <time>2011-10-16T10:25:51Z</time>
      </trkpt>
      <trkpt lat="45.81693" lon="4.637">
        <ele>440.4212646</ele>
        <time>2011-10-16T10:25:58Z</time>
      </trkpt>
      <trkpt lat="45.817" lon="4.63691">
        <ele>439.9404297</ele>
        <time>2011-10-16T10:26:03Z</time>
      </trkpt>
      <trkpt lat="45.8172" lon="4.63666">
        <ele>438.4985352</ele>
        <time>2011-10-16T10:26:12Z</time>
      </trkpt>
      <trkpt lat="45.81736" lon="4.63646">
        <ele>435.1339111</ele>
        <time>2011-10-16T10:26:16Z</time>
      </trkpt>
      <trkpt lat="45.81742" lon="4.6364">
        <ele>435.1339111</ele>
        <time>2011-10-16T10:26:17Z</time>
      </trkpt>
      <trkpt lat="45.81767" lon="4.63607">
        <ele>431.2885742</ele>
        <time>2011-10-16T10:26:21Z</time>
      </trkpt>
      <trkpt lat="45.81781" lon="4.63589">
        <ele>427.4433594</ele>
        <time>2011-10-16T10:26:24Z</time>
      </trkpt>
      <trkpt lat="45.81786" lon="4.63583">
        <ele>426.0013428</ele>
        <time>2011-10-16T10:26:26Z</time>
      </trkpt>
      <trkpt lat="45.81789" lon="4.63578">
        <ele>424.0787354</ele>
        <time>2011-10-16T10:26:29Z</time>
      </trkpt>
      <trkpt lat="45.8179" lon="4.63575">
        <ele>422.6367188</ele>
        <time>2011-10-16T10:26:32Z</time>
      </trkpt>
      <trkpt lat="45.8179" lon="4.63574">
        <ele>422.6367188</ele>
        <time>2011-10-16T10:26:45Z</time>
      </trkpt>
      <trkpt lat="45.81785" lon="4.63554">
        <ele>422.1560059</ele>
        <time>2011-10-16T10:26:52Z</time>
      </trkpt>
      <trkpt lat="45.81772" lon="4.63514">
        <ele>421.1948242</ele>
        <time>2011-10-16T10:27:00Z</time>
      </trkpt>
      <trkpt lat="45.81762" lon="4.63486">
        <ele>422.1560059</ele>
        <time>2011-10-16T10:27:04Z</time>
      </trkpt>
      <trkpt lat="45.8174" lon="4.63425">
        <ele>421.1948242</ele>
        <time>2011-10-16T10:27:12Z</time>
      </trkpt>
      <trkpt lat="45.81707" lon="4.63356">
        <ele>421.1948242</ele>
        <time>2011-10-16T10:27:20Z</time>
      </trkpt>
      <trkpt lat="45.81699" lon="4.63337">
        <ele>421.675415</ele>
        <time>2011-10-16T10:27:22Z</time>
      </trkpt>
      <trkpt lat="45.81668" lon="4.63221">
        <ele>421.675415</ele>
        <time>2011-10-16T10:27:32Z</time>
      </trkpt>
      <trkpt lat="45.81653" lon="4.63165">
        <ele>423.1174316</ele>
        <time>2011-10-16T10:27:38Z</time>
      </trkpt>
      <trkpt lat="45.81629" lon="4.6307">
        <ele>421.1948242</ele>
        <time>2011-10-16T10:27:49Z</time>
      </trkpt>
      <trkpt lat="45.81626" lon="4.6305">
        <ele>420.2333984</ele>
        <time>2011-10-16T10:27:51Z</time>
      </trkpt>
      <trkpt lat="45.8162" lon="4.62994">
        <ele>416.8688965</ele>
        <time>2011-10-16T10:27:56Z</time>
      </trkpt>
      <trkpt lat="45.81613" lon="4.62896">
        <ele>413.9848633</ele>
        <time>2011-10-16T10:28:04Z</time>
      </trkpt>
      <trkpt lat="45.81615" lon="4.62868">
        <ele>411.581665</ele>
        <time>2011-10-16T10:28:08Z</time>
      </trkpt>
      <trkpt lat="45.81615" lon="4.62853">
        <ele>411.1009521</ele>
        <time>2011-10-16T10:28:10Z</time>
      </trkpt>
      <trkpt lat="45.81611" lon="4.62806">
        <ele>408.217041</ele>
        <time>2011-10-16T10:28:15Z</time>
      </trkpt>
      <trkpt lat="45.81607" lon="4.62756">
        <ele>405.3330078</ele>
        <time>2011-10-16T10:28:21Z</time>
      </trkpt>
      <trkpt lat="45.81607" lon="4.62748">
        <ele>405.3330078</ele>
        <time>2011-10-16T10:28:22Z</time>
      </trkpt>
      <trkpt lat="45.81613" lon="4.62714">
        <ele>405.3330078</ele>
        <time>2011-10-16T10:28:26Z</time>
      </trkpt>
      <trkpt lat="45.81607" lon="4.6267">
        <ele>404.8522949</ele>
        <time>2011-10-16T10:28:30Z</time>
      </trkpt>
      <trkpt lat="45.81592" lon="4.62613">
        <ele>405.3330078</ele>
        <time>2011-10-16T10:28:36Z</time>
      </trkpt>
      <trkpt lat="45.81583" lon="4.62548">
        <ele>406.2943115</ele>
        <time>2011-10-16T10:28:44Z</time>
      </trkpt>
      <trkpt lat="45.81573" lon="4.62489">
        <ele>405.3330078</ele>
        <time>2011-10-16T10:28:51Z</time>
      </trkpt>
      <trkpt lat="45.81571" lon="4.6248">
        <ele>405.8137207</ele>
        <time>2011-10-16T10:28:52Z</time>
      </trkpt>
      <trkpt lat="45.81566" lon="4.62394">
        <ele>405.8137207</ele>
        <time>2011-10-16T10:29:01Z</time>
      </trkpt>
      <trkpt lat="45.81564" lon="4.62376">
        <ele>405.3330078</ele>
        <time>2011-10-16T10:29:04Z</time>
      </trkpt>
      <trkpt lat="45.81564" lon="4.62371">
        <ele>405.3330078</ele>
        <time>2011-10-16T10:29:06Z</time>
      </trkpt>
      <trkpt lat="45.8156" lon="4.62369">
        <ele>405.8137207</ele>
        <time>2011-10-16T10:29:10Z</time>
      </trkpt>
      <trkpt lat="45.81562" lon="4.62376">
        <ele>405.3330078</ele>
        <time>2011-10-16T10:29:12Z</time>
      </trkpt>
      <trkpt lat="45.81562" lon="4.62388">
        <ele>405.8137207</ele>
        <time>2011-10-16T10:29:20Z</time>
      </trkpt>
      <trkpt lat="45.81562" lon="4.62388">
        <ele>405.8137207</ele>
        <time>2011-10-16T10:29:23Z</time>
      </trkpt>
      <trkpt lat="45.81565" lon="4.62395">
        <ele>405.8137207</ele>
        <time>2011-10-16T10:29:27Z</time>
      </trkpt>
      <trkpt lat="45.81565" lon="4.62388">
        <ele>405.8137207</ele>
        <time>2011-10-16T10:29:33Z</time>
      </trkpt>
      <trkpt lat="45.81563" lon="4.62388">
        <ele>405.8137207</ele>
        <time>2011-10-16T10:29:35Z</time>
      </trkpt>
      <trkpt lat="45.81556" lon="4.62377">
        <ele>405.8137207</ele>
        <time>2011-10-16T10:29:46Z</time>
      </trkpt>
      <trkpt lat="45.8156" lon="4.62389">
        <ele>405.8137207</ele>
        <time>2011-10-16T10:29:51Z</time>
      </trkpt>
      <trkpt lat="45.81561" lon="4.62396">
        <ele>405.8137207</ele>
        <time>2011-10-16T10:29:58Z</time>
      </trkpt>
      <trkpt lat="45.81562" lon="4.624">
        <ele>406.2943115</ele>
        <time>2011-10-16T10:30:09Z</time>
      </trkpt>
      <trkpt lat="45.81566" lon="4.62398">
        <ele>406.2943115</ele>
        <time>2011-10-16T10:30:14Z</time>
      </trkpt>
      <trkpt lat="45.81563" lon="4.6239">
        <ele>406.2943115</ele>
        <time>2011-10-16T10:30:23Z</time>
      </trkpt>
      <trkpt lat="45.81558" lon="4.62382">
        <ele>405.8137207</ele>
        <time>2011-10-16T10:30:32Z</time>
      </trkpt>
      <trkpt lat="45.81561" lon="4.62396">
        <ele>405.8137207</ele>
        <time>2011-10-16T10:30:39Z</time>
      </trkpt>
      <trkpt lat="45.81563" lon="4.62399">
        <ele>405.8137207</ele>
        <time>2011-10-16T10:30:44Z</time>
      </trkpt>
      <trkpt lat="45.81567" lon="4.62403">
        <ele>405.3330078</ele>
        <time>2011-10-16T10:31:47Z</time>
      </trkpt>
      <trkpt lat="45.8157" lon="4.62398">
        <ele>405.3330078</ele>
        <time>2011-10-16T10:31:51Z</time>
      </trkpt>
      <trkpt lat="45.81568" lon="4.62394">
        <ele>405.3330078</ele>
        <time>2011-10-16T10:31:54Z</time>
      </trkpt>
      <trkpt lat="45.81563" lon="4.62368">
        <ele>404.8522949</ele>
        <time>2011-10-16T10:32:02Z</time>
      </trkpt>
      <trkpt lat="45.81553" lon="4.62325">
        <ele>404.3717041</ele>
        <time>2011-10-16T10:32:09Z</time>
      </trkpt>
      <trkpt lat="45.81534" lon="4.62253">
        <ele>403.4104004</ele>
        <time>2011-10-16T10:32:18Z</time>
      </trkpt>
      <trkpt lat="45.81517" lon="4.62207">
        <ele>401.9685059</ele>
        <time>2011-10-16T10:32:23Z</time>
      </trkpt>
      <trkpt lat="45.8151" lon="4.62186">
        <ele>401.0070801</ele>
        <time>2011-10-16T10:32:26Z</time>
      </trkpt>
      <trkpt lat="45.81515" lon="4.6217">
        <ele>401.0070801</ele>
        <time>2011-10-16T10:32:31Z</time>
      </trkpt>
      <trkpt lat="45.81585" lon="4.62176">
        <ele>402.4490967</ele>
        <time>2011-10-16T10:32:52Z</time>
      </trkpt>
      <trkpt lat="45.81645" lon="4.6218">
        <ele>401.9685059</ele>
        <time>2011-10-16T10:33:04Z</time>
      </trkpt>
      <trkpt lat="45.81678" lon="4.62177">
        <ele>399.0843506</ele>
        <time>2011-10-16T10:33:09Z</time>
      </trkpt>
      <trkpt lat="45.81698" lon="4.62175">
        <ele>397.6424561</ele>
        <time>2011-10-16T10:33:12Z</time>
      </trkpt>
      <trkpt lat="45.81799" lon="4.62165">
        <ele>385.6259766</ele>
        <time>2011-10-16T10:33:28Z</time>
      </trkpt>
      <trkpt lat="45.81811" lon="4.62209">
        <ele>386.1066895</ele>
        <time>2011-10-16T10:33:35Z</time>
      </trkpt>
      <trkpt lat="45.81823" lon="4.62241">
        <ele>388.5100098</ele>
        <time>2011-10-16T10:33:41Z</time>
      </trkpt>
      <trkpt lat="45.81831" lon="4.62257">
        <ele>388.9906006</ele>
        <time>2011-10-16T10:33:44Z</time>
      </trkpt>
      <trkpt lat="45.81921" lon="4.62384">
        <ele>388.9906006</ele>
        <time>2011-10-16T10:34:11Z</time>
      </trkpt>
      <trkpt lat="45.81966" lon="4.62373">
        <ele>382.2613525</ele>
        <time>2011-10-16T10:34:19Z</time>
      </trkpt>
      <trkpt lat="45.81973" lon="4.6237">
        <ele>381.7806396</ele>
        <time>2011-10-16T10:34:20Z</time>
      </trkpt>
      <trkpt lat="45.81995" lon="4.62364">
        <ele>380.3387451</ele>
        <time>2011-10-16T10:34:24Z</time>
      </trkpt>
      <trkpt lat="45.82018" lon="4.62362">
        <ele>379.8580322</ele>
        <time>2011-10-16T10:34:28Z</time>
      </trkpt>
      <trkpt lat="45.82163" lon="4.62409">
        <ele>370.244873</ele>
        <time>2011-10-16T10:34:52Z</time>
      </trkpt>
      <trkpt lat="45.82176" lon="4.6241">
        <ele>366.880249</ele>
        <time>2011-10-16T10:34:54Z</time>
      </trkpt>
      <trkpt lat="45.8219" lon="4.62407">
        <ele>364.4769287</ele>
        <time>2011-10-16T10:34:56Z</time>
      </trkpt>
      <trkpt lat="45.82193" lon="4.62398">
        <ele>364.9576416</ele>
        <time>2011-10-16T10:35:00Z</time>
      </trkpt>
      <trkpt lat="45.82173" lon="4.62378">
        <ele>366.3995361</ele>
        <time>2011-10-16T10:35:07Z</time>
      </trkpt>
      <trkpt lat="45.82152" lon="4.62362">
        <ele>369.2836914</ele>
        <time>2011-10-16T10:35:13Z</time>
      </trkpt>
      <trkpt lat="45.82108" lon="4.62343">
        <ele>372.1674805</ele>
        <time>2011-10-16T10:35:26Z</time>
      </trkpt>
      <trkpt lat="45.82063" lon="4.62327">
        <ele>373.6094971</ele>
        <time>2011-10-16T10:35:39Z</time>
      </trkpt>
      <trkpt lat="45.82034" lon="4.62316">
        <ele>374.5708008</ele>
        <time>2011-10-16T10:35:48Z</time>
      </trkpt>
    </trkseg>
  </trk>
</gpx>